BAW4E KLAX-EGLL
Flight info
| Callsign | BAW4E |
|---|---|
| Flight time | N/A |
| Altitude | 35000 |
| Route | OSHNN1 BEALE Q842 WINEN DCT DTA DCT BOY DCT OLIIV DCT KU12U DCT PETBO DCT LEATS/N0502F370 DCT YTH DCT 61N090W 64N080W 65N070W/M084F370 DCT IKNOG DCT 66N050W/M085F390 6530N04000W 6430N03000W 62N020W DCT ETILO/N0484F390 DCT EVNAL DCT KELLY L10 WAL UY53 NUGRA |
| Aircraft | A388/J-SADE2E3FGHIJ3J4J5M1RWXY/LB1D1 |
Departure
| Time | 2026-04-25 05:23 |
|---|---|
| Airport | Los Angeles International Airport (KLAX) |
Arrival
| Time | N/A |
|---|---|
| Airport | London Heathrow Airport (EGLL) |
| Time | Latitude | Longitude | Altitude | Speed | Heading |
|---|---|---|---|---|---|
| 2026-04-25 04:45 | 33.94020 | -118.41080 | 98 ft | 0 kts | 83° |
| 2026-04-25 05:04 | 33.94019 | -118.41087 | 98 ft | 1 kts | 82° |
| 2026-04-25 05:04 | 33.94017 | -118.41103 | 85 ft | 2 kts | 80° |
| 2026-04-25 05:04 | 33.94013 | -118.41124 | 80 ft | 3 kts | 76° |
| 2026-04-25 05:04 | 33.94007 | -118.41146 | 98 ft | 3 kts | 68° |
| 2026-04-25 05:05 | 33.93997 | -118.41164 | 95 ft | 2 kts | 51° |
| 2026-04-25 05:05 | 33.93984 | -118.41175 | 97 ft | 2 kts | 23° |
| 2026-04-25 05:05 | 33.93972 | -118.41177 | 96 ft | 1 kts | 2° |
| 2026-04-25 05:05 | 33.93964 | -118.41176 | 96 ft | 1 kts | 356° |
| 2026-04-25 05:06 | 33.93961 | -118.41176 | 97 ft | 0 kts | 355° |
| 2026-04-25 05:12 | 33.93969 | -118.41177 | 101 ft | 6 kts | 354° |
| 2026-04-25 05:12 | 33.94044 | -118.41187 | 99 ft | 13 kts | 353° |
| 2026-04-25 05:12 | 33.94138 | -118.41202 | 100 ft | 11 kts | 353° |
| 2026-04-25 05:12 | 33.94220 | -118.41214 | 98 ft | 11 kts | 353° |
| 2026-04-25 05:13 | 33.94306 | -118.41226 | 99 ft | 13 kts | 353° |
| 2026-04-25 05:13 | 33.94404 | -118.41241 | 100 ft | 14 kts | 353° |
| 2026-04-25 05:13 | 33.94483 | -118.41253 | 99 ft | 9 kts | 353° |
| 2026-04-25 05:13 | 33.94546 | -118.41263 | 99 ft | 9 kts | 353° |
| 2026-04-25 05:14 | 33.94593 | -118.41270 | 99 ft | 5 kts | 353° |
| 2026-04-25 05:14 | 33.94597 | -118.41270 | 99 ft | 0 kts | 353° |
| 2026-04-25 05:15 | 33.94601 | -118.41271 | 100 ft | 3 kts | 353° |
| 2026-04-25 05:16 | 33.94643 | -118.41277 | 100 ft | 8 kts | 353° |
| 2026-04-25 05:16 | 33.94690 | -118.41283 | 100 ft | 10 kts | 353° |
| 2026-04-25 05:16 | 33.94760 | -118.41282 | 101 ft | 10 kts | 26° |
| 2026-04-25 05:16 | 33.94800 | -118.41215 | 102 ft | 11 kts | 78° |
| 2026-04-25 05:17 | 33.94811 | -118.41111 | 100 ft | 14 kts | 83° |
| 2026-04-25 05:17 | 33.94824 | -118.40986 | 101 ft | 16 kts | 83° |
| 2026-04-25 05:17 | 33.94841 | -118.40817 | 99 ft | 22 kts | 83° |
| 2026-04-25 05:17 | 33.94859 | -118.40636 | 99 ft | 22 kts | 83° |
| 2026-04-25 05:18 | 33.94878 | -118.40452 | 102 ft | 22 kts | 82° |
| 2026-04-25 05:18 | 33.94894 | -118.40297 | 99 ft | 19 kts | 83° |
| 2026-04-25 05:18 | 33.94910 | -118.40137 | 99 ft | 20 kts | 83° |
| 2026-04-25 05:18 | 33.94923 | -118.40002 | 98 ft | 11 kts | 84° |
| 2026-04-25 05:19 | 33.94938 | -118.39945 | 99 ft | 0 kts | 53° |
| 2026-04-25 05:20 | 33.94939 | -118.39944 | 99 ft | 0 kts | 53° |
| 2026-04-25 05:22 | 33.94959 | -118.39924 | 100 ft | 10 kts | 19° |
| 2026-04-25 05:22 | 33.95031 | -118.39982 | 99 ft | 16 kts | 277° |
| 2026-04-25 05:22 | 33.95021 | -118.40150 | 104 ft | 35 kts | 263° |
| 2026-04-25 05:22 | 33.94958 | -118.40772 | 104 ft | 111 kts | 263° |
| 2026-04-25 05:23 | 33.94842 | -118.41919 | 110 ft | 160 kts | 261° |
| 2026-04-25 05:23 | 33.94694 | -118.43305 | 541 ft | 166 kts | 261° |
| 2026-04-25 05:23 | 33.94524 | -118.44693 | 1124 ft | 168 kts | 261° |
| 2026-04-25 05:23 | 33.94368 | -118.46067 | 1719 ft | 168 kts | 263° |
| 2026-04-25 05:24 | 33.94301 | -118.47536 | 1928 ft | 190 kts | 271° |
| 2026-04-25 05:24 | 33.94294 | -118.49208 | 2093 ft | 205 kts | 269° |
| 2026-04-25 05:24 | 33.94237 | -118.51038 | 2307 ft | 229 kts | 265° |
| 2026-04-25 05:24 | 33.94069 | -118.53045 | 2621 ft | 251 kts | 264° |
| 2026-04-25 05:25 | 33.93894 | -118.55178 | 3276 ft | 258 kts | 265° |
| 2026-04-25 05:25 | 33.93721 | -118.57339 | 4011 ft | 260 kts | 265° |
| 2026-04-25 05:25 | 33.93549 | -118.59517 | 4720 ft | 262 kts | 264° |
| 2026-04-25 05:25 | 33.93140 | -118.61623 | 5334 ft | 265 kts | 244° |
| 2026-04-25 05:26 | 33.91990 | -118.63369 | 5968 ft | 269 kts | 218° |
| 2026-04-25 05:26 | 33.90277 | -118.64303 | 6514 ft | 275 kts | 191° |
| 2026-04-25 05:26 | 33.88358 | -118.64201 | 7056 ft | 281 kts | 165° |
| 2026-04-25 05:26 | 33.86565 | -118.63217 | 7567 ft | 285 kts | 151° |
| 2026-04-25 05:27 | 33.84871 | -118.61947 | 8052 ft | 288 kts | 149° |
| 2026-04-25 05:27 | 33.83161 | -118.60671 | 8551 ft | 290 kts | 151° |
| 2026-04-25 05:27 | 33.81404 | -118.59449 | 9030 ft | 292 kts | 153° |
| 2026-04-25 05:27 | 33.79611 | -118.58276 | 9649 ft | 295 kts | 155° |
| 2026-04-25 05:28 | 33.77789 | -118.57120 | 10242 ft | 301 kts | 156° |
| 2026-04-25 05:28 | 33.75864 | -118.55921 | 10412 ft | 320 kts | 156° |
| 2026-04-25 05:28 | 33.73833 | -118.54661 | 10569 ft | 337 kts | 156° |
| 2026-04-25 05:28 | 33.71714 | -118.53309 | 10802 ft | 352 kts | 151° |
| 2026-04-25 05:29 | 33.69888 | -118.51354 | 11296 ft | 363 kts | 130° |
| 2026-04-25 05:29 | 33.68664 | -118.48673 | 11822 ft | 373 kts | 111° |
| 2026-04-25 05:29 | 33.67816 | -118.45705 | 12289 ft | 378 kts | 111° |
| 2026-04-25 05:29 | 33.66943 | -118.42705 | 12799 ft | 383 kts | 112° |
| 2026-04-25 05:30 | 33.66048 | -118.39670 | 13286 ft | 388 kts | 112° |
| 2026-04-25 05:30 | 33.65156 | -118.36596 | 13787 ft | 393 kts | 109° |
| 2026-04-25 05:30 | 33.64575 | -118.33377 | 14225 ft | 400 kts | 98° |
| 2026-04-25 05:30 | 33.64429 | -118.30013 | 14714 ft | 403 kts | 90° |
| 2026-04-25 05:31 | 33.64465 | -118.26637 | 15188 ft | 406 kts | 90° |
| 2026-04-25 05:31 | 33.64473 | -118.23231 | 15651 ft | 409 kts | 90° |
| 2026-04-25 05:31 | 33.64775 | -118.19825 | 16095 ft | 413 kts | 74° |
| 2026-04-25 05:31 | 33.65879 | -118.16660 | 16568 ft | 412 kts | 56° |
| 2026-04-25 05:32 | 33.67664 | -118.14050 | 17000 ft | 408 kts | 37° |
| 2026-04-25 05:32 | 33.69956 | -118.12070 | 17481 ft | 405 kts | 27° |
| 2026-04-25 05:32 | 33.72370 | -118.10319 | 17903 ft | 408 kts | 27° |
| 2026-04-25 05:32 | 33.74789 | -118.08481 | 18341 ft | 412 kts | 29° |
| 2026-04-25 05:33 | 33.77163 | -118.06528 | 18725 ft | 415 kts | 31° |
| 2026-04-25 05:33 | 33.79509 | -118.04491 | 19110 ft | 418 kts | 32° |
| 2026-04-25 05:33 | 33.81853 | -118.02403 | 19503 ft | 420 kts | 32° |
| 2026-04-25 05:33 | 33.84203 | -118.00289 | 19910 ft | 422 kts | 32° |
| 2026-04-25 05:34 | 33.86556 | -117.98166 | 20290 ft | 424 kts | 32° |
| 2026-04-25 05:34 | 33.88926 | -117.96027 | 20714 ft | 426 kts | 32° |
| 2026-04-25 05:34 | 33.91307 | -117.93879 | 21104 ft | 428 kts | 32° |
| 2026-04-25 05:34 | 33.93693 | -117.91710 | 21459 ft | 431 kts | 32° |
| 2026-04-25 05:35 | 33.96089 | -117.89516 | 21829 ft | 433 kts | 32° |
| 2026-04-25 05:35 | 33.98490 | -117.87316 | 22190 ft | 436 kts | 32° |
| 2026-04-25 05:35 | 34.00909 | -117.85099 | 22563 ft | 438 kts | 32° |
| 2026-04-25 05:35 | 34.03308 | -117.82901 | 22922 ft | 440 kts | 32° |
| 2026-04-25 05:36 | 34.05755 | -117.80659 | 23289 ft | 442 kts | 32° |
| 2026-04-25 05:36 | 34.08182 | -117.78348 | 23613 ft | 448 kts | 37° |
| 2026-04-25 05:36 | 34.10387 | -117.75645 | 23908 ft | 455 kts | 45° |
| 2026-04-25 05:36 | 34.12379 | -117.72658 | 24192 ft | 459 kts | 47° |
| 2026-04-25 05:37 | 34.14392 | -117.69655 | 24481 ft | 461 kts | 47° |
| 2026-04-25 05:37 | 34.16424 | -117.66647 | 24769 ft | 463 kts | 46° |
| 2026-04-25 05:37 | 34.18467 | -117.63623 | 25097 ft | 465 kts | 47° |
| 2026-04-25 05:37 | 34.20496 | -117.60614 | 25367 ft | 468 kts | 46° |
| 2026-04-25 05:38 | 34.22554 | -117.57555 | 25656 ft | 471 kts | 46° |
| 2026-04-25 05:38 | 34.24636 | -117.54463 | 25920 ft | 473 kts | 46° |
| 2026-04-25 05:38 | 34.26726 | -117.51359 | 26252 ft | 475 kts | 46° |
| 2026-04-25 05:38 | 34.28815 | -117.48241 | 26554 ft | 479 kts | 46° |
| 2026-04-25 05:39 | 34.30918 | -117.45098 | 26909 ft | 480 kts | 46° |
| 2026-04-25 05:39 | 34.32999 | -117.41984 | 27251 ft | 483 kts | 46° |
| 2026-04-25 05:39 | 34.35122 | -117.38807 | 27581 ft | 486 kts | 46° |
| 2026-04-25 05:39 | 34.37257 | -117.35611 | 27913 ft | 489 kts | 46° |
| 2026-04-25 05:40 | 34.39401 | -117.32400 | 28253 ft | 492 kts | 46° |
| 2026-04-25 05:40 | 34.41561 | -117.29161 | 28582 ft | 495 kts | 47° |
| 2026-04-25 05:40 | 34.43730 | -117.25905 | 28922 ft | 498 kts | 47° |
| 2026-04-25 05:40 | 34.45913 | -117.22625 | 29303 ft | 501 kts | 47° |
| 2026-04-25 05:41 | 34.48106 | -117.19327 | 29654 ft | 504 kts | 47° |
| 2026-04-25 05:41 | 34.50317 | -117.15998 | 29961 ft | 507 kts | 46° |
| 2026-04-25 05:41 | 34.52506 | -117.12701 | 30225 ft | 511 kts | 46° |
| 2026-04-25 05:41 | 34.54751 | -117.09318 | 30493 ft | 515 kts | 46° |
| 2026-04-25 05:42 | 34.57037 | -117.05949 | 30717 ft | 519 kts | 45° |
| 2026-04-25 05:42 | 34.59365 | -117.02579 | 31007 ft | 522 kts | 45° |
| 2026-04-25 05:42 | 34.61708 | -116.99192 | 31246 ft | 526 kts | 45° |
| 2026-04-25 05:42 | 34.64068 | -116.95769 | 31545 ft | 529 kts | 45° |
| 2026-04-25 05:43 | 34.66435 | -116.92322 | 31806 ft | 533 kts | 45° |
| 2026-04-25 05:43 | 34.68785 | -116.88891 | 32055 ft | 536 kts | 45° |
| 2026-04-25 05:43 | 34.71184 | -116.85381 | 32329 ft | 541 kts | 45° |
| 2026-04-25 05:43 | 34.73596 | -116.81851 | 32538 ft | 545 kts | 45° |
| 2026-04-25 05:44 | 34.76023 | -116.78294 | 32831 ft | 548 kts | 45° |
| 2026-04-25 05:44 | 34.78462 | -116.74715 | 33078 ft | 552 kts | 45° |
| 2026-04-25 05:44 | 34.80090 | -116.72325 | 33261 ft | 554 kts | 45° |
| 2026-04-25 05:44 | 34.82560 | -116.68695 | 33511 ft | 557 kts | 45° |
| 2026-04-25 05:45 | 34.85036 | -116.65052 | 33772 ft | 560 kts | 45° |
| 2026-04-25 05:45 | 34.87562 | -116.61424 | 33990 ft | 562 kts | 43° |
| 2026-04-25 05:45 | 34.90206 | -116.57902 | 34262 ft | 563 kts | 41° |
| 2026-04-25 05:45 | 34.92879 | -116.54408 | 34575 ft | 564 kts | 40° |
| 2026-04-25 05:46 | 34.95555 | -116.50893 | 34809 ft | 567 kts | 41° |
| 2026-04-25 05:46 | 35.00937 | -116.43745 | 34818 ft | 584 kts | 41° |
| 2026-04-25 05:47 | 35.06483 | -116.36309 | 34796 ft | 601 kts | 42° |
| 2026-04-25 05:47 | 35.12173 | -116.28646 | 34803 ft | 615 kts | 42° |
| 2026-04-25 05:48 | 35.17969 | -116.20827 | 35228 ft | 617 kts | 42° |
| 2026-04-25 05:48 | 35.20810 | -116.16984 | 36352 ft | 600 kts | 41° |
| 2026-04-25 05:48 | 35.23584 | -116.13225 | 37192 ft | 591 kts | 41° |
| 2026-04-25 05:48 | 35.26316 | -116.09516 | 37896 ft | 584 kts | 41° |
| 2026-04-25 05:49 | 35.29035 | -116.05827 | 38363 ft | 582 kts | 41° |
| 2026-04-25 05:49 | 35.31744 | -116.02155 | 38692 ft | 581 kts | 41° |
| 2026-04-25 05:49 | 35.34453 | -115.98488 | 38985 ft | 580 kts | 41° |
| 2026-04-25 05:49 | 35.37160 | -115.94830 | 39274 ft | 579 kts | 41° |
| 2026-04-25 05:50 | 35.39834 | -115.91221 | 39654 ft | 576 kts | 41° |
| 2026-04-25 05:50 | 35.42525 | -115.87591 | 39973 ft | 575 kts | 41° |
| 2026-04-25 05:50 | 35.45211 | -115.83973 | 40231 ft | 574 kts | 41° |
| 2026-04-25 05:50 | 35.47905 | -115.80349 | 40481 ft | 574 kts | 41° |
| 2026-04-25 05:51 | 35.50594 | -115.76737 | 40706 ft | 573 kts | 42° |
| 2026-04-25 05:51 | 35.53294 | -115.73117 | 40961 ft | 573 kts | 42° |
| 2026-04-25 05:51 | 35.55988 | -115.69510 | 41188 ft | 573 kts | 42° |
| 2026-04-25 05:51 | 35.58687 | -115.65901 | 41433 ft | 572 kts | 42° |
| 2026-04-25 05:52 | 35.61378 | -115.62306 | 41687 ft | 571 kts | 42° |
| 2026-04-25 05:52 | 35.64072 | -115.58714 | 41930 ft | 571 kts | 42° |
| 2026-04-25 05:52 | 35.66769 | -115.55121 | 42150 ft | 570 kts | 42° |
| 2026-04-25 05:52 | 35.69463 | -115.51538 | 42360 ft | 570 kts | 42° |
| 2026-04-25 05:53 | 35.72162 | -115.47953 | 42589 ft | 570 kts | 42° |
| 2026-04-25 05:53 | 35.74823 | -115.44423 | 42783 ft | 570 kts | 42° |
| 2026-04-25 05:53 | 35.77528 | -115.40839 | 42951 ft | 570 kts | 42° |
| 2026-04-25 05:53 | 35.80238 | -115.37256 | 43107 ft | 571 kts | 42° |
| 2026-04-25 05:54 | 35.82947 | -115.33681 | 43245 ft | 571 kts | 42° |
| 2026-04-25 05:54 | 35.85662 | -115.30103 | 43435 ft | 571 kts | 42° |
| 2026-04-25 05:54 | 35.91083 | -115.22974 | 44046 ft | 566 kts | 42° |
| 2026-04-25 05:55 | 35.93774 | -115.19437 | 44344 ft | 563 kts | 43° |
| 2026-04-25 05:55 | 35.96457 | -115.15913 | 44529 ft | 562 kts | 42° |
| 2026-04-25 05:55 | 35.99144 | -115.12389 | 44655 ft | 562 kts | 42° |
| 2026-04-25 05:55 | 36.01789 | -115.08922 | 44769 ft | 562 kts | 42° |
| 2026-04-25 05:56 | 36.07166 | -115.01891 | 44948 ft | 562 kts | 42° |
| 2026-04-25 05:56 | 36.12539 | -114.94880 | 45105 ft | 562 kts | 42° |
| 2026-04-25 05:57 | 36.17931 | -114.87862 | 45286 ft | 561 kts | 42° |
| 2026-04-25 05:57 | 36.20620 | -114.84368 | 45407 ft | 561 kts | 42° |
| 2026-04-25 05:57 | 36.23314 | -114.80872 | 45535 ft | 560 kts | 42° |
| 2026-04-25 05:58 | 36.26011 | -114.77374 | 45636 ft | 560 kts | 42° |
| 2026-04-25 05:58 | 36.28703 | -114.73887 | 45701 ft | 560 kts | 42° |
| 2026-04-25 05:58 | 36.34093 | -114.66918 | 45840 ft | 560 kts | 41° |
| 2026-04-25 05:59 | 36.39471 | -114.59982 | 45954 ft | 561 kts | 41° |
| 2026-04-25 05:59 | 36.44895 | -114.53009 | 46077 ft | 561 kts | 41° |
| 2026-04-25 06:00 | 36.50329 | -114.46038 | 46194 ft | 561 kts | 41° |
| 2026-04-25 06:00 | 36.55778 | -114.39067 | 46344 ft | 562 kts | 41° |
| 2026-04-25 06:01 | 36.61232 | -114.32106 | 46469 ft | 562 kts | 41° |
| 2026-04-25 06:01 | 36.66701 | -114.25145 | 46587 ft | 562 kts | 41° |
| 2026-04-25 06:02 | 36.72183 | -114.18183 | 46692 ft | 563 kts | 41° |
| 2026-04-25 06:02 | 36.77646 | -114.11261 | 46809 ft | 563 kts | 41° |
| 2026-04-25 06:03 | 36.83149 | -114.04304 | 46941 ft | 563 kts | 41° |
| 2026-04-25 06:03 | 36.85897 | -114.00834 | 47132 ft | 559 kts | 41° |
| 2026-04-25 06:03 | 36.88634 | -113.97380 | 47277 ft | 557 kts | 41° |
| 2026-04-25 06:04 | 36.94091 | -113.90499 | 47380 ft | 556 kts | 41° |
| 2026-04-25 06:04 | 36.99514 | -113.83677 | 47488 ft | 556 kts | 41° |
| 2026-04-25 06:05 | 37.04974 | -113.76824 | 47561 ft | 555 kts | 40° |
| 2026-04-25 06:05 | 37.10439 | -113.69978 | 47631 ft | 555 kts | 40° |
| 2026-04-25 06:06 | 37.15906 | -113.63146 | 47720 ft | 554 kts | 40° |
| 2026-04-25 06:06 | 37.21370 | -113.56332 | 47766 ft | 553 kts | 40° |
| 2026-04-25 06:07 | 37.26833 | -113.49535 | 47784 ft | 553 kts | 40° |
| 2026-04-25 06:07 | 37.32260 | -113.42800 | 47828 ft | 552 kts | 40° |
| 2026-04-25 06:08 | 37.37736 | -113.36020 | 47872 ft | 551 kts | 40° |
| 2026-04-25 06:08 | 37.43205 | -113.29266 | 47963 ft | 550 kts | 40° |
| 2026-04-25 06:09 | 37.48678 | -113.22521 | 48025 ft | 550 kts | 40° |
| 2026-04-25 06:09 | 37.54153 | -113.15788 | 48100 ft | 549 kts | 40° |
| 2026-04-25 06:10 | 37.59619 | -113.09076 | 48158 ft | 549 kts | 40° |
| 2026-04-25 06:10 | 37.65094 | -113.02364 | 48185 ft | 548 kts | 40° |
| 2026-04-25 06:11 | 37.70531 | -112.95710 | 48193 ft | 548 kts | 40° |
| 2026-04-25 06:11 | 37.76011 | -112.89016 | 48212 ft | 547 kts | 39° |
| 2026-04-25 06:12 | 37.81487 | -112.82340 | 48189 ft | 546 kts | 39° |
| 2026-04-25 06:12 | 37.86970 | -112.75668 | 48171 ft | 546 kts | 39° |
| 2026-04-25 06:13 | 37.92441 | -112.69024 | 48148 ft | 545 kts | 39° |
| 2026-04-25 06:14 | 38.00624 | -112.59111 | 48148 ft | 544 kts | 39° |
| 2026-04-25 06:14 | 38.06104 | -112.52487 | 48188 ft | 543 kts | 39° |
| 2026-04-25 06:15 | 38.11585 | -112.45874 | 48183 ft | 542 kts | 39° |
| 2026-04-25 06:15 | 38.17060 | -112.39278 | 48188 ft | 541 kts | 39° |
| 2026-04-25 06:16 | 38.22531 | -112.32701 | 48169 ft | 540 kts | 39° |
| 2026-04-25 06:16 | 38.27960 | -112.26185 | 48150 ft | 539 kts | 39° |
| 2026-04-25 06:17 | 38.33420 | -112.19642 | 48151 ft | 538 kts | 39° |
| 2026-04-25 06:17 | 38.38869 | -112.13118 | 48114 ft | 537 kts | 39° |
| 2026-04-25 06:18 | 38.44327 | -112.06593 | 48107 ft | 537 kts | 38° |
| 2026-04-25 06:18 | 38.49774 | -112.00089 | 48065 ft | 536 kts | 38° |
| 2026-04-25 06:19 | 38.55227 | -111.93589 | 48012 ft | 535 kts | 38° |
| 2026-04-25 06:19 | 38.60662 | -111.87122 | 47946 ft | 533 kts | 38° |
| 2026-04-25 06:20 | 38.66061 | -111.80705 | 47919 ft | 532 kts | 38° |
| 2026-04-25 06:20 | 38.71490 | -111.74259 | 47875 ft | 532 kts | 38° |
| 2026-04-25 06:21 | 38.76926 | -111.67816 | 47826 ft | 532 kts | 38° |
| 2026-04-25 06:21 | 38.82361 | -111.61383 | 47775 ft | 531 kts | 38° |
| 2026-04-25 06:22 | 38.87789 | -111.54970 | 47760 ft | 530 kts | 38° |
| 2026-04-25 06:22 | 38.93217 | -111.48569 | 47702 ft | 529 kts | 38° |
| 2026-04-25 06:23 | 38.98644 | -111.42178 | 47655 ft | 529 kts | 38° |
| 2026-04-25 06:23 | 39.04073 | -111.35793 | 47590 ft | 528 kts | 38° |
| 2026-04-25 06:24 | 39.09466 | -111.29463 | 47551 ft | 528 kts | 37° |
| 2026-04-25 06:24 | 39.14897 | -111.23101 | 47527 ft | 527 kts | 37° |
| 2026-04-25 06:25 | 39.20325 | -111.16753 | 47483 ft | 527 kts | 37° |
| 2026-04-25 06:25 | 39.25762 | -111.10410 | 47402 ft | 526 kts | 37° |
| 2026-04-25 06:26 | 39.31200 | -111.04083 | 47360 ft | 526 kts | 37° |
| 2026-04-25 06:26 | 39.36646 | -110.97761 | 47297 ft | 526 kts | 37° |
| 2026-04-25 06:27 | 39.42105 | -110.91435 | 47313 ft | 526 kts | 37° |
| 2026-04-25 06:27 | 39.47559 | -110.85128 | 47302 ft | 526 kts | 37° |
| 2026-04-25 06:28 | 39.53019 | -110.78827 | 47295 ft | 526 kts | 37° |
| 2026-04-25 06:28 | 39.58463 | -110.72558 | 47263 ft | 526 kts | 37° |
| 2026-04-25 06:29 | 39.63950 | -110.66253 | 47238 ft | 526 kts | 37° |
| 2026-04-25 06:29 | 39.69442 | -110.59956 | 47186 ft | 527 kts | 37° |
| 2026-04-25 06:30 | 39.74949 | -110.53655 | 47175 ft | 527 kts | 37° |
| 2026-04-25 06:30 | 39.80429 | -110.47399 | 47157 ft | 528 kts | 37° |
| 2026-04-25 06:31 | 39.85958 | -110.41096 | 47128 ft | 528 kts | 36° |
| 2026-04-25 06:31 | 39.91493 | -110.34798 | 47113 ft | 528 kts | 36° |
| 2026-04-25 06:32 | 39.97022 | -110.28518 | 47110 ft | 528 kts | 37° |
| 2026-04-25 06:32 | 40.01642 | -110.23282 | 47089 ft | 528 kts | 36° |
| 2026-04-25 06:33 | 40.08093 | -110.15983 | 47053 ft | 528 kts | 36° |
| 2026-04-25 06:33 | 40.12713 | -110.10766 | 47045 ft | 528 kts | 36° |
| 2026-04-25 06:34 | 40.18276 | -110.04498 | 47022 ft | 528 kts | 36° |
| 2026-04-25 06:34 | 40.23847 | -109.98235 | 47018 ft | 528 kts | 36° |
| 2026-04-25 06:35 | 40.29430 | -109.91971 | 47014 ft | 528 kts | 36° |
| 2026-04-25 06:35 | 40.34998 | -109.85737 | 47004 ft | 528 kts | 36° |
| 2026-04-25 06:36 | 40.40596 | -109.79483 | 47009 ft | 528 kts | 36° |
| 2026-04-25 06:36 | 40.46202 | -109.73237 | 47014 ft | 529 kts | 36° |
| 2026-04-25 06:37 | 40.51820 | -109.66991 | 47127 ft | 529 kts | 37° |
| 2026-04-25 06:37 | 40.57445 | -109.60753 | 47127 ft | 529 kts | 37° |
| 2026-04-25 06:38 | 40.63086 | -109.54511 | 47128 ft | 529 kts | 36° |
| 2026-04-25 06:38 | 40.68735 | -109.48278 | 47130 ft | 529 kts | 36° |
| 2026-04-25 06:39 | 40.74392 | -109.42051 | 47167 ft | 530 kts | 36° |
| 2026-04-25 06:39 | 40.80025 | -109.35866 | 47205 ft | 530 kts | 36° |
| 2026-04-25 06:40 | 40.85707 | -109.29642 | 47209 ft | 530 kts | 36° |
| 2026-04-25 06:40 | 40.91394 | -109.23427 | 47235 ft | 531 kts | 36° |
| 2026-04-25 06:41 | 40.97107 | -109.17197 | 47250 ft | 532 kts | 36° |
| 2026-04-25 06:41 | 41.02829 | -109.10972 | 47290 ft | 532 kts | 37° |
| 2026-04-25 06:42 | 41.08569 | -109.04748 | 47306 ft | 533 kts | 37° |
| 2026-04-25 06:42 | 41.14276 | -108.98574 | 47337 ft | 533 kts | 37° |
| 2026-04-25 06:43 | 41.20037 | -108.92356 | 47387 ft | 534 kts | 36° |
| 2026-04-25 06:43 | 41.25808 | -108.86142 | 47396 ft | 534 kts | 36° |
| 2026-04-25 06:44 | 41.31595 | -108.79926 | 47439 ft | 534 kts | 36° |
| 2026-04-25 06:44 | 41.37387 | -108.73716 | 47490 ft | 535 kts | 36° |
| 2026-04-25 06:45 | 41.43199 | -108.67499 | 47509 ft | 535 kts | 36° |
| 2026-04-25 06:45 | 41.49016 | -108.61440 | 47448 ft | 535 kts | 28° |
| 2026-04-25 06:46 | 41.55762 | -108.57666 | 47496 ft | 523 kts | 7° |
| 2026-04-25 06:46 | 41.59351 | -108.57078 | 47462 ft | 515 kts | 356° |
| 2026-04-25 06:46 | 41.62898 | -108.57338 | 46997 ft | 508 kts | 346° |
| 2026-04-25 06:46 | 41.66374 | -108.58211 | 46223 ft | 509 kts | 343° |
| 2026-04-25 06:47 | 41.69842 | -108.59258 | 45383 ft | 512 kts | 343° |
| 2026-04-25 06:47 | 41.73298 | -108.60336 | 44941 ft | 508 kts | 343° |
| 2026-04-25 06:47 | 41.76719 | -108.61409 | 44562 ft | 502 kts | 343° |
| 2026-04-25 06:47 | 41.80121 | -108.62481 | 43979 ft | 500 kts | 342° |
| 2026-04-25 06:48 | 41.83460 | -108.63536 | 43409 ft | 498 kts | 342° |
| 2026-04-25 06:48 | 41.86837 | -108.64605 | 42738 ft | 498 kts | 342° |
| 2026-04-25 06:48 | 41.90200 | -108.65671 | 42168 ft | 496 kts | 342° |
| 2026-04-25 06:48 | 41.93554 | -108.66734 | 41706 ft | 492 kts | 341° |
| 2026-04-25 06:49 | 41.96872 | -108.67787 | 41306 ft | 487 kts | 341° |
| 2026-04-25 06:49 | 42.00161 | -108.68833 | 40913 ft | 482 kts | 341° |
| 2026-04-25 06:49 | 42.03415 | -108.69871 | 40506 ft | 478 kts | 341° |
| 2026-04-25 06:49 | 42.06647 | -108.70906 | 40028 ft | 476 kts | 340° |
| 2026-04-25 06:50 | 42.09861 | -108.71939 | 39479 ft | 476 kts | 340° |
| 2026-04-25 06:50 | 42.13088 | -108.72978 | 38916 ft | 476 kts | 340° |
| 2026-04-25 06:50 | 42.16298 | -108.74010 | 38593 ft | 472 kts | 340° |
| 2026-04-25 06:50 | 42.19491 | -108.75039 | 38332 ft | 472 kts | 340° |
| 2026-04-25 06:51 | 42.22699 | -108.76078 | 38054 ft | 476 kts | 340° |
| 2026-04-25 06:51 | 42.25924 | -108.77123 | 37775 ft | 479 kts | 340° |
| 2026-04-25 06:51 | 42.29129 | -108.78159 | 37523 ft | 480 kts | 340° |
| 2026-04-25 06:51 | 42.32377 | -108.79207 | 37260 ft | 480 kts | 340° |
| 2026-04-25 06:52 | 42.35632 | -108.80257 | 37039 ft | 479 kts | 340° |
| 2026-04-25 06:52 | 42.42126 | -108.82355 | 37038 ft | 481 kts | 340° |
| 2026-04-25 06:53 | 42.48647 | -108.84463 | 37035 ft | 482 kts | 340° |
| 2026-04-25 06:53 | 42.55176 | -108.86573 | 37018 ft | 482 kts | 340° |
| 2026-04-25 06:54 | 42.61704 | -108.88685 | 37029 ft | 482 kts | 340° |
| 2026-04-25 06:54 | 42.68188 | -108.90785 | 37044 ft | 482 kts | 341° |
| 2026-04-25 06:55 | 42.74742 | -108.92910 | 37041 ft | 481 kts | 341° |
| 2026-04-25 06:55 | 42.81213 | -108.95012 | 37039 ft | 480 kts | 341° |
| 2026-04-25 06:56 | 42.87723 | -108.97129 | 37056 ft | 480 kts | 341° |
| 2026-04-25 06:56 | 42.94224 | -108.99245 | 37048 ft | 480 kts | 341° |
| 2026-04-25 06:57 | 43.00721 | -109.01361 | 37045 ft | 480 kts | 341° |
| 2026-04-25 06:57 | 43.07231 | -109.03488 | 37057 ft | 481 kts | 341° |
| 2026-04-25 06:58 | 43.13706 | -109.05609 | 37069 ft | 481 kts | 341° |
| 2026-04-25 06:58 | 43.20226 | -109.07745 | 37079 ft | 482 kts | 341° |
| 2026-04-25 06:59 | 43.26755 | -109.09884 | 37082 ft | 482 kts | 341° |
| 2026-04-25 06:59 | 43.33292 | -109.12026 | 37065 ft | 483 kts | 341° |
| 2026-04-25 07:00 | 43.39838 | -109.14164 | 37077 ft | 483 kts | 341° |
| 2026-04-25 07:00 | 43.46374 | -109.16310 | 37104 ft | 484 kts | 341° |
| 2026-04-25 07:01 | 43.52935 | -109.18467 | 37109 ft | 484 kts | 341° |
| 2026-04-25 07:01 | 43.59455 | -109.20624 | 37099 ft | 485 kts | 341° |
| 2026-04-25 07:02 | 43.66031 | -109.22816 | 37107 ft | 486 kts | 341° |
| 2026-04-25 07:02 | 43.72622 | -109.25014 | 37112 ft | 487 kts | 341° |
| 2026-04-25 07:03 | 43.79212 | -109.27234 | 37110 ft | 487 kts | 341° |
| 2026-04-25 07:03 | 43.85805 | -109.29466 | 37122 ft | 488 kts | 341° |
| 2026-04-25 07:04 | 43.92401 | -109.31699 | 37136 ft | 488 kts | 341° |
| 2026-04-25 07:04 | 43.98997 | -109.33972 | 37122 ft | 488 kts | 341° |
| 2026-04-25 07:05 | 44.05553 | -109.36239 | 37125 ft | 489 kts | 341° |
| 2026-04-25 07:05 | 44.12159 | -109.38524 | 37142 ft | 489 kts | 341° |
| 2026-04-25 07:06 | 44.18752 | -109.40846 | 37142 ft | 489 kts | 341° |
| 2026-04-25 07:06 | 44.25356 | -109.43172 | 37147 ft | 489 kts | 341° |
| 2026-04-25 07:07 | 44.31965 | -109.45510 | 37151 ft | 489 kts | 341° |
| 2026-04-25 07:07 | 44.38557 | -109.47874 | 37150 ft | 489 kts | 341° |
| 2026-04-25 07:08 | 44.45153 | -109.50238 | 37144 ft | 489 kts | 341° |
| 2026-04-25 07:08 | 44.51701 | -109.52593 | 37152 ft | 489 kts | 341° |
| 2026-04-25 07:09 | 44.58291 | -109.54990 | 37144 ft | 489 kts | 341° |
| 2026-04-25 07:09 | 44.64864 | -109.57378 | 37138 ft | 488 kts | 341° |
| 2026-04-25 07:10 | 44.71452 | -109.59774 | 37139 ft | 489 kts | 341° |
| 2026-04-25 07:10 | 44.78030 | -109.62166 | 37142 ft | 488 kts | 341° |
| 2026-04-25 07:11 | 44.84578 | -109.64546 | 37142 ft | 488 kts | 341° |
| 2026-04-25 07:11 | 44.91162 | -109.66960 | 37132 ft | 489 kts | 341° |
| 2026-04-25 07:12 | 44.97742 | -109.69381 | 37146 ft | 489 kts | 341° |
| 2026-04-25 07:12 | 45.07629 | -109.73019 | 37149 ft | 489 kts | 341° |
| 2026-04-25 07:13 | 45.14234 | -109.75446 | 37150 ft | 490 kts | 341° |
| 2026-04-25 07:13 | 45.20832 | -109.77869 | 37144 ft | 490 kts | 341° |
| 2026-04-25 07:14 | 45.27435 | -109.80312 | 37142 ft | 490 kts | 341° |
| 2026-04-25 07:14 | 45.33979 | -109.82752 | 37138 ft | 490 kts | 341° |
| 2026-04-25 07:15 | 45.40576 | -109.85212 | 37132 ft | 490 kts | 341° |
| 2026-04-25 07:15 | 45.47182 | -109.87694 | 37134 ft | 490 kts | 341° |
| 2026-04-25 07:16 | 45.53783 | -109.90195 | 37127 ft | 491 kts | 342° |
| 2026-04-25 07:16 | 45.60384 | -109.92694 | 37129 ft | 491 kts | 342° |
| 2026-04-25 07:17 | 45.66992 | -109.95217 | 37114 ft | 491 kts | 342° |
| 2026-04-25 07:17 | 45.73562 | -109.97724 | 37126 ft | 492 kts | 342° |
| 2026-04-25 07:18 | 45.80183 | -110.00217 | 37122 ft | 491 kts | 342° |
| 2026-04-25 07:18 | 45.86793 | -110.02732 | 37108 ft | 491 kts | 342° |
| 2026-04-25 07:19 | 45.93396 | -110.05262 | 37096 ft | 491 kts | 342° |
| 2026-04-25 07:19 | 46.00012 | -110.07796 | 37095 ft | 491 kts | 342° |
| 2026-04-25 07:20 | 46.06600 | -110.10352 | 37089 ft | 491 kts | 342° |
| 2026-04-25 07:20 | 46.12080 | -110.12493 | 37089 ft | 490 kts | 342° |
| 2026-04-25 07:21 | 46.18673 | -110.15069 | 37102 ft | 490 kts | 342° |
| 2026-04-25 07:21 | 46.25262 | -110.17669 | 37108 ft | 491 kts | 342° |
| 2026-04-25 07:22 | 46.31837 | -110.20294 | 37112 ft | 491 kts | 342° |
| 2026-04-25 07:22 | 46.38429 | -110.22925 | 37119 ft | 491 kts | 342° |
| 2026-04-25 07:23 | 46.44977 | -110.25563 | 37133 ft | 491 kts | 342° |
| 2026-04-25 07:23 | 46.51565 | -110.28247 | 37139 ft | 492 kts | 342° |
| 2026-04-25 07:24 | 46.58159 | -110.30932 | 37143 ft | 492 kts | 342° |
| 2026-04-25 07:24 | 46.64762 | -110.33633 | 37159 ft | 492 kts | 342° |
| 2026-04-25 07:25 | 46.71359 | -110.36347 | 37150 ft | 492 kts | 342° |
| 2026-04-25 07:25 | 46.77918 | -110.39043 | 37140 ft | 492 kts | 342° |
| 2026-04-25 07:26 | 46.84509 | -110.41735 | 37167 ft | 491 kts | 342° |
| 2026-04-25 07:26 | 46.91091 | -110.44386 | 37144 ft | 490 kts | 342° |
| 2026-04-25 07:27 | 46.97663 | -110.47021 | 37149 ft | 489 kts | 342° |
| 2026-04-25 07:27 | 47.04215 | -110.49640 | 37138 ft | 488 kts | 342° |
| 2026-04-25 07:28 | 47.10729 | -110.52250 | 37127 ft | 488 kts | 342° |
| 2026-04-25 07:28 | 47.17288 | -110.54884 | 37131 ft | 487 kts | 342° |
| 2026-04-25 07:29 | 47.23841 | -110.57538 | 37124 ft | 488 kts | 342° |
| 2026-04-25 07:29 | 47.30355 | -110.60224 | 37132 ft | 488 kts | 342° |
| 2026-04-25 07:30 | 47.36898 | -110.62922 | 37137 ft | 489 kts | 342° |
| 2026-04-25 07:30 | 47.43461 | -110.65627 | 37158 ft | 490 kts | 342° |
| 2026-04-25 07:31 | 47.50013 | -110.68377 | 37164 ft | 490 kts | 342° |
| 2026-04-25 07:31 | 47.56581 | -110.71135 | 37169 ft | 491 kts | 342° |
| 2026-04-25 07:32 | 47.63158 | -110.73898 | 37188 ft | 490 kts | 342° |
| 2026-04-25 07:32 | 47.69719 | -110.76687 | 37176 ft | 490 kts | 342° |
| 2026-04-25 07:33 | 47.76275 | -110.79476 | 37175 ft | 490 kts | 342° |
| 2026-04-25 07:33 | 47.82782 | -110.82243 | 37169 ft | 489 kts | 342° |
| 2026-04-25 07:34 | 47.89323 | -110.85054 | 37172 ft | 488 kts | 342° |
| 2026-04-25 07:34 | 47.95837 | -110.87863 | 37159 ft | 487 kts | 342° |
| 2026-04-25 07:35 | 48.02352 | -110.90672 | 37153 ft | 486 kts | 342° |
| 2026-04-25 07:35 | 48.08840 | -110.93486 | 37170 ft | 485 kts | 342° |
| 2026-04-25 07:36 | 48.15307 | -110.96305 | 37159 ft | 484 kts | 342° |
| 2026-04-25 07:36 | 48.21733 | -110.99104 | 37154 ft | 483 kts | 342° |
| 2026-04-25 07:37 | 48.28195 | -111.01907 | 37157 ft | 483 kts | 342° |
| 2026-04-25 07:37 | 48.34659 | -111.04703 | 37154 ft | 483 kts | 342° |
| 2026-04-25 07:38 | 48.41111 | -111.07493 | 37153 ft | 482 kts | 342° |
| 2026-04-25 07:38 | 48.47570 | -111.10289 | 37160 ft | 483 kts | 342° |
| 2026-04-25 07:39 | 48.53980 | -111.13081 | 37158 ft | 483 kts | 343° |
| 2026-04-25 07:39 | 48.60436 | -111.15894 | 37160 ft | 483 kts | 342° |
| 2026-04-25 07:40 | 48.66892 | -111.18706 | 37159 ft | 483 kts | 343° |
| 2026-04-25 07:40 | 48.73346 | -111.21527 | 37202 ft | 481 kts | 343° |
| 2026-04-25 07:41 | 48.79772 | -111.24336 | 37164 ft | 480 kts | 343° |
| 2026-04-25 07:41 | 48.86182 | -111.27138 | 37172 ft | 479 kts | 343° |
| 2026-04-25 07:42 | 48.92578 | -111.29961 | 37159 ft | 478 kts | 343° |
| 2026-04-25 07:42 | 48.98932 | -111.32802 | 37160 ft | 478 kts | 343° |
| 2026-04-25 07:43 | 49.05309 | -111.35652 | 37161 ft | 478 kts | 343° |
| 2026-04-25 07:43 | 49.11696 | -111.38505 | 37155 ft | 478 kts | 343° |
| 2026-04-25 07:44 | 49.18088 | -111.41361 | 37162 ft | 478 kts | 343° |
| 2026-04-25 07:44 | 49.24477 | -111.44216 | 37158 ft | 479 kts | 343° |
| 2026-04-25 07:45 | 49.30887 | -111.47078 | 37169 ft | 479 kts | 343° |
| 2026-04-25 07:45 | 49.37282 | -111.49958 | 37161 ft | 479 kts | 343° |
| 2026-04-25 07:46 | 49.43685 | -111.52848 | 37165 ft | 480 kts | 343° |
| 2026-04-25 07:46 | 49.50099 | -111.55742 | 37166 ft | 480 kts | 343° |
| 2026-04-25 07:47 | 49.56459 | -111.58621 | 37176 ft | 479 kts | 343° |
| 2026-04-25 07:47 | 49.62858 | -111.61538 | 37179 ft | 479 kts | 343° |
| 2026-04-25 07:48 | 49.69254 | -111.64438 | 37177 ft | 478 kts | 343° |
| 2026-04-25 07:48 | 49.75634 | -111.67328 | 37180 ft | 477 kts | 343° |
| 2026-04-25 07:49 | 49.82006 | -111.70244 | 37181 ft | 476 kts | 343° |
| 2026-04-25 07:49 | 49.88367 | -111.73159 | 37172 ft | 476 kts | 343° |
| 2026-04-25 07:50 | 49.94681 | -111.76051 | 37166 ft | 475 kts | 343° |
| 2026-04-25 07:50 | 50.01023 | -111.78966 | 37169 ft | 475 kts | 343° |
| 2026-04-25 07:51 | 50.07348 | -111.81892 | 37168 ft | 475 kts | 343° |
| 2026-04-25 07:51 | 50.13684 | -111.84823 | 37170 ft | 475 kts | 343° |
| 2026-04-25 07:52 | 50.20033 | -111.87758 | 37177 ft | 475 kts | 343° |
| 2026-04-25 07:52 | 50.26359 | -111.90713 | 37183 ft | 475 kts | 343° |
| 2026-04-25 07:53 | 50.32650 | -111.93656 | 37179 ft | 475 kts | 343° |
| 2026-04-25 07:53 | 50.38982 | -111.96618 | 37180 ft | 475 kts | 343° |
| 2026-04-25 07:54 | 50.45313 | -111.99587 | 37184 ft | 474 kts | 343° |
| 2026-04-25 07:54 | 50.51635 | -112.02568 | 37184 ft | 474 kts | 343° |
| 2026-04-25 07:55 | 50.57953 | -112.05549 | 37186 ft | 474 kts | 343° |
| 2026-04-25 07:55 | 50.64270 | -112.08530 | 37179 ft | 474 kts | 343° |
| 2026-04-25 07:56 | 50.70585 | -112.11521 | 37179 ft | 474 kts | 343° |
| 2026-04-25 07:56 | 50.76899 | -112.14513 | 37180 ft | 474 kts | 343° |
| 2026-04-25 07:57 | 50.83230 | -112.17512 | 37183 ft | 474 kts | 343° |
| 2026-04-25 07:57 | 50.89514 | -112.20499 | 37182 ft | 474 kts | 343° |
| 2026-04-25 07:58 | 50.95839 | -112.23535 | 37184 ft | 475 kts | 343° |
| 2026-04-25 07:58 | 51.02175 | -112.26577 | 37192 ft | 475 kts | 343° |
| 2026-04-25 07:59 | 51.08500 | -112.29618 | 37180 ft | 475 kts | 343° |
| 2026-04-25 07:59 | 51.14775 | -112.32668 | 37192 ft | 474 kts | 343° |
| 2026-04-25 08:00 | 51.21095 | -112.35757 | 37188 ft | 474 kts | 343° |
| 2026-04-25 08:00 | 51.27406 | -112.38841 | 37186 ft | 474 kts | 343° |
| 2026-04-25 08:01 | 51.33712 | -112.41919 | 37183 ft | 474 kts | 343° |
| 2026-04-25 08:01 | 51.40024 | -112.45001 | 37184 ft | 474 kts | 344° |
| 2026-04-25 08:02 | 51.46285 | -112.48059 | 37190 ft | 474 kts | 344° |
| 2026-04-25 08:02 | 51.52600 | -112.51143 | 37188 ft | 474 kts | 344° |
| 2026-04-25 08:03 | 51.58911 | -112.54239 | 37177 ft | 474 kts | 344° |
| 2026-04-25 08:03 | 51.65228 | -112.57357 | 37185 ft | 475 kts | 344° |
| 2026-04-25 08:04 | 51.71557 | -112.60481 | 37186 ft | 476 kts | 344° |
| 2026-04-25 08:04 | 51.77884 | -112.63602 | 37196 ft | 476 kts | 344° |
| 2026-04-25 08:05 | 51.84225 | -112.66738 | 37190 ft | 476 kts | 344° |
| 2026-04-25 08:05 | 51.90568 | -112.69877 | 37196 ft | 477 kts | 344° |
| 2026-04-25 08:06 | 51.96923 | -112.73022 | 37200 ft | 478 kts | 344° |
| 2026-04-25 08:06 | 52.03243 | -112.76149 | 37194 ft | 478 kts | 344° |
| 2026-04-25 08:07 | 52.09609 | -112.79324 | 37206 ft | 478 kts | 344° |
| 2026-04-25 08:07 | 52.15964 | -112.82493 | 37209 ft | 478 kts | 344° |
| 2026-04-25 08:08 | 52.22332 | -112.85670 | 37207 ft | 477 kts | 344° |
| 2026-04-25 08:08 | 52.28640 | -112.88827 | 37206 ft | 477 kts | 344° |
| 2026-04-25 08:09 | 52.34980 | -112.92019 | 37206 ft | 477 kts | 344° |
| 2026-04-25 08:09 | 52.41323 | -112.95213 | 37207 ft | 476 kts | 344° |
| 2026-04-25 08:10 | 52.46599 | -112.97868 | 37211 ft | 476 kts | 344° |
| 2026-04-25 08:10 | 52.52929 | -113.01066 | 37195 ft | 476 kts | 344° |
| 2026-04-25 08:11 | 52.59268 | -113.04273 | 37199 ft | 477 kts | 344° |
| 2026-04-25 08:11 | 52.65613 | -113.07480 | 37202 ft | 477 kts | 344° |
| 2026-04-25 08:12 | 52.71974 | -113.10693 | 37206 ft | 477 kts | 344° |
| 2026-04-25 08:12 | 52.78337 | -113.13929 | 37204 ft | 478 kts | 344° |
| 2026-04-25 08:13 | 52.84657 | -113.17151 | 37211 ft | 479 kts | 344° |
| 2026-04-25 08:14 | 52.94228 | -113.22028 | 37224 ft | 480 kts | 344° |
| 2026-04-25 08:14 | 53.00615 | -113.25298 | 37219 ft | 480 kts | 344° |
| 2026-04-25 08:15 | 53.06997 | -113.28590 | 37226 ft | 480 kts | 344° |
| 2026-04-25 08:15 | 53.13386 | -113.31882 | 37225 ft | 480 kts | 345° |
| 2026-04-25 08:16 | 53.19738 | -113.35155 | 37225 ft | 480 kts | 345° |
| 2026-04-25 08:16 | 53.26108 | -113.38470 | 37230 ft | 479 kts | 345° |
| 2026-04-25 08:17 | 53.32478 | -113.41799 | 37226 ft | 479 kts | 345° |
| 2026-04-25 08:17 | 53.38854 | -113.45133 | 37120 ft | 479 kts | 345° |
| 2026-04-25 08:18 | 53.45215 | -113.48459 | 37187 ft | 479 kts | 345° |
| 2026-04-25 08:18 | 53.51571 | -113.51815 | 37183 ft | 478 kts | 345° |
| 2026-04-25 08:19 | 53.57879 | -113.55150 | 37164 ft | 478 kts | 345° |
| 2026-04-25 08:19 | 53.64235 | -113.58506 | 37149 ft | 478 kts | 345° |
| 2026-04-25 08:20 | 53.70589 | -113.61860 | 37138 ft | 478 kts | 345° |
| 2026-04-25 08:20 | 53.76935 | -113.65209 | 37145 ft | 477 kts | 345° |
| 2026-04-25 08:21 | 53.83254 | -113.68543 | 37164 ft | 477 kts | 345° |
| 2026-04-25 08:21 | 53.89599 | -113.71889 | 37183 ft | 477 kts | 345° |
| 2026-04-25 08:22 | 53.95951 | -113.75238 | 37196 ft | 478 kts | 345° |
| 2026-04-25 08:22 | 54.02313 | -113.78602 | 37225 ft | 479 kts | 345° |
| 2026-04-25 08:23 | 54.08686 | -113.81970 | 37233 ft | 480 kts | 345° |
| 2026-04-25 08:23 | 54.15067 | -113.85342 | 37246 ft | 480 kts | 345° |
| 2026-04-25 08:24 | 54.21460 | -113.88726 | 37254 ft | 480 kts | 345° |
| 2026-04-25 08:24 | 54.27857 | -113.92123 | 37253 ft | 481 kts | 345° |
| 2026-04-25 08:25 | 54.34218 | -113.95500 | 37252 ft | 481 kts | 345° |
| 2026-04-25 08:25 | 54.40619 | -113.98902 | 37266 ft | 481 kts | 345° |
| 2026-04-25 08:26 | 54.47006 | -114.02306 | 37263 ft | 480 kts | 345° |
| 2026-04-25 08:26 | 54.53350 | -114.05697 | 37259 ft | 479 kts | 345° |
| 2026-04-25 08:27 | 54.59719 | -114.09103 | 37260 ft | 479 kts | 345° |
| 2026-04-25 08:27 | 54.66082 | -114.12506 | 37256 ft | 478 kts | 345° |
| 2026-04-25 08:28 | 54.72444 | -114.15923 | 37256 ft | 477 kts | 345° |
| 2026-04-25 08:28 | 54.78781 | -114.19339 | 37258 ft | 477 kts | 345° |
| 2026-04-25 08:29 | 54.85090 | -114.22740 | 37260 ft | 477 kts | 345° |
| 2026-04-25 08:29 | 54.91428 | -114.26156 | 37262 ft | 477 kts | 345° |
| 2026-04-25 08:30 | 54.97768 | -114.29583 | 37264 ft | 477 kts | 345° |
| 2026-04-25 08:30 | 55.04095 | -114.33010 | 37271 ft | 477 kts | 345° |
| 2026-04-25 08:31 | 55.10439 | -114.36446 | 37263 ft | 477 kts | 345° |
| 2026-04-25 08:31 | 55.16782 | -114.39877 | 37236 ft | 477 kts | 345° |
| 2026-04-25 08:32 | 55.23124 | -114.43315 | 37225 ft | 477 kts | 345° |
| 2026-04-25 08:32 | 55.29465 | -114.46756 | 37212 ft | 477 kts | 345° |
| 2026-04-25 08:33 | 55.35765 | -114.50173 | 37206 ft | 478 kts | 345° |
| 2026-04-25 08:33 | 55.42124 | -114.53601 | 37210 ft | 478 kts | 345° |
| 2026-04-25 08:34 | 55.48482 | -114.57030 | 37232 ft | 478 kts | 345° |
| 2026-04-25 08:34 | 55.54839 | -114.60459 | 37290 ft | 478 kts | 345° |
| 2026-04-25 08:35 | 55.61218 | -114.63899 | 37288 ft | 478 kts | 346° |
| 2026-04-25 08:35 | 55.67594 | -114.67335 | 37302 ft | 479 kts | 346° |
| 2026-04-25 08:36 | 55.73968 | -114.70772 | 37300 ft | 478 kts | 346° |
| 2026-04-25 08:36 | 55.80290 | -114.74183 | 37300 ft | 478 kts | 346° |
| 2026-04-25 08:37 | 55.86653 | -114.77616 | 37306 ft | 478 kts | 346° |
| 2026-04-25 08:37 | 55.93018 | -114.81049 | 37304 ft | 477 kts | 346° |
| 2026-04-25 08:38 | 55.99380 | -114.84480 | 37300 ft | 477 kts | 346° |
| 2026-04-25 08:38 | 56.05747 | -114.87910 | 37313 ft | 477 kts | 346° |
| 2026-04-25 08:39 | 56.12112 | -114.91339 | 37311 ft | 477 kts | 346° |
| 2026-04-25 08:39 | 56.18431 | -114.94744 | 37317 ft | 477 kts | 346° |
| 2026-04-25 08:40 | 56.24796 | -114.98173 | 37316 ft | 477 kts | 346° |
| 2026-04-25 08:40 | 56.31178 | -115.01609 | 37326 ft | 477 kts | 346° |
| 2026-04-25 08:41 | 56.37505 | -115.05014 | 37327 ft | 477 kts | 346° |
| 2026-04-25 08:41 | 56.43909 | -115.08463 | 37327 ft | 477 kts | 346° |
| 2026-04-25 08:42 | 56.50249 | -115.11870 | 37333 ft | 477 kts | 346° |
| 2026-04-25 08:42 | 56.56619 | -115.15283 | 37333 ft | 477 kts | 346° |
| 2026-04-25 08:43 | 56.62993 | -115.18698 | 37337 ft | 477 kts | 346° |
| 2026-04-25 08:43 | 56.69321 | -115.22087 | 37360 ft | 477 kts | 346° |
| 2026-04-25 08:44 | 56.75693 | -115.25507 | 37344 ft | 477 kts | 346° |
| 2026-04-25 08:44 | 56.82072 | -115.28928 | 37356 ft | 477 kts | 346° |
| 2026-04-25 08:45 | 56.88459 | -115.32352 | 37358 ft | 478 kts | 346° |
| 2026-04-25 08:45 | 56.94838 | -115.35769 | 37363 ft | 478 kts | 346° |
| 2026-04-25 08:46 | 57.01192 | -115.39172 | 37345 ft | 478 kts | 346° |
| 2026-04-25 08:46 | 57.07567 | -115.42572 | 37364 ft | 478 kts | 346° |
| 2026-04-25 08:47 | 57.13956 | -115.45976 | 37372 ft | 478 kts | 346° |
| 2026-04-25 08:47 | 57.20348 | -115.49386 | 37374 ft | 478 kts | 346° |
| 2026-04-25 08:48 | 57.26738 | -115.52794 | 37378 ft | 478 kts | 346° |
| 2026-04-25 08:48 | 57.33146 | -115.56186 | 37373 ft | 478 kts | 346° |
| 2026-04-25 08:49 | 57.39555 | -115.59572 | 37376 ft | 479 kts | 346° |
| 2026-04-25 08:49 | 57.45934 | -115.62938 | 37382 ft | 479 kts | 346° |
| 2026-04-25 08:50 | 57.52352 | -115.66324 | 37382 ft | 479 kts | 346° |
| 2026-04-25 08:50 | 57.58769 | -115.69674 | 37384 ft | 478 kts | 346° |
| 2026-04-25 08:51 | 57.65190 | -115.72999 | 37390 ft | 478 kts | 346° |
| 2026-04-25 08:51 | 57.71603 | -115.76318 | 37385 ft | 478 kts | 346° |
| 2026-04-25 08:52 | 57.78016 | -115.79636 | 37390 ft | 478 kts | 346° |
| 2026-04-25 08:52 | 57.84425 | -115.82944 | 37400 ft | 477 kts | 346° |
| 2026-04-25 08:53 | 57.90785 | -115.86212 | 37398 ft | 476 kts | 346° |
| 2026-04-25 08:53 | 57.97190 | -115.89504 | 37383 ft | 477 kts | 346° |
| 2026-04-25 08:54 | 58.03594 | -115.92804 | 37378 ft | 477 kts | 347° |
| 2026-04-25 08:54 | 58.10014 | -115.96110 | 37383 ft | 477 kts | 346° |
| 2026-04-25 08:55 | 58.16431 | -115.99383 | 37396 ft | 477 kts | 347° |
| 2026-04-25 08:55 | 58.22854 | -116.02658 | 37395 ft | 477 kts | 347° |
| 2026-04-25 08:56 | 58.29270 | -116.05929 | 37396 ft | 477 kts | 347° |
| 2026-04-25 08:56 | 58.35684 | -116.09198 | 37398 ft | 477 kts | 347° |
| 2026-04-25 08:57 | 58.41015 | -116.11906 | 37402 ft | 476 kts | 347° |
| 2026-04-25 08:57 | 58.48465 | -116.15685 | 37403 ft | 476 kts | 347° |
| 2026-04-25 08:58 | 58.54855 | -116.18927 | 37400 ft | 475 kts | 347° |
| 2026-04-25 08:58 | 58.60205 | -116.21640 | 37404 ft | 475 kts | 347° |
| 2026-04-25 08:59 | 58.66592 | -116.24879 | 37431 ft | 473 kts | 347° |
| 2026-04-25 08:59 | 58.72961 | -116.28106 | 37424 ft | 473 kts | 347° |
| 2026-04-25 09:00 | 58.79280 | -116.31310 | 37428 ft | 472 kts | 347° |
| 2026-04-25 09:00 | 58.85624 | -116.34532 | 37422 ft | 471 kts | 347° |
| 2026-04-25 09:01 | 58.91967 | -116.37754 | 37422 ft | 471 kts | 347° |
| 2026-04-25 09:01 | 58.98314 | -116.40976 | 37425 ft | 471 kts | 347° |
| 2026-04-25 09:02 | 59.04655 | -116.44194 | 37424 ft | 471 kts | 347° |
| 2026-04-25 09:02 | 59.11006 | -116.47416 | 37422 ft | 471 kts | 347° |
| 2026-04-25 09:03 | 59.17374 | -116.50621 | 37413 ft | 473 kts | 347° |
| 2026-04-25 09:03 | 59.23754 | -116.53800 | 37436 ft | 474 kts | 347° |
| 2026-04-25 09:04 | 59.30160 | -116.56992 | 37441 ft | 475 kts | 347° |
| 2026-04-25 09:04 | 59.36566 | -116.60184 | 37450 ft | 475 kts | 347° |
| 2026-04-25 09:05 | 59.42937 | -116.63358 | 37453 ft | 476 kts | 347° |
| 2026-04-25 09:05 | 59.49351 | -116.66557 | 37452 ft | 476 kts | 347° |
| 2026-04-25 09:06 | 59.55767 | -116.69755 | 37472 ft | 474 kts | 347° |
| 2026-04-25 09:06 | 59.62166 | -116.72948 | 37464 ft | 473 kts | 347° |
| 2026-04-25 09:07 | 59.68549 | -116.76134 | 37462 ft | 472 kts | 347° |
| 2026-04-25 09:07 | 59.74923 | -116.79313 | 37456 ft | 471 kts | 347° |
| 2026-04-25 09:08 | 59.81242 | -116.82445 | 37477 ft | 469 kts | 347° |
| 2026-04-25 09:08 | 59.87577 | -116.85556 | 37468 ft | 468 kts | 347° |
| 2026-04-25 09:09 | 59.93908 | -116.88665 | 37467 ft | 467 kts | 347° |
| 2026-04-25 09:09 | 60.00229 | -116.91772 | 37462 ft | 467 kts | 347° |
| 2026-04-25 09:10 | 60.06539 | -116.94873 | 37450 ft | 467 kts | 347° |
| 2026-04-25 09:10 | 60.12846 | -116.97928 | 37476 ft | 466 kts | 347° |
| 2026-04-25 09:11 | 60.22292 | -117.02487 | 37476 ft | 465 kts | 347° |
| 2026-04-25 09:11 | 60.28563 | -117.05514 | 37470 ft | 465 kts | 347° |
| 2026-04-25 09:12 | 60.34863 | -117.08556 | 37475 ft | 466 kts | 347° |
| 2026-04-25 09:12 | 60.41167 | -117.11606 | 37478 ft | 465 kts | 347° |
| 2026-04-25 09:13 | 60.47469 | -117.14658 | 37483 ft | 465 kts | 347° |
| 2026-04-25 09:13 | 60.53767 | -117.17708 | 37483 ft | 465 kts | 347° |
| 2026-04-25 09:14 | 60.60026 | -117.20739 | 37486 ft | 465 kts | 347° |
| 2026-04-25 09:14 | 60.66328 | -117.23790 | 37478 ft | 464 kts | 347° |
| 2026-04-25 09:15 | 60.72605 | -117.26829 | 37493 ft | 463 kts | 347° |
| 2026-04-25 09:15 | 60.78886 | -117.29873 | 37495 ft | 463 kts | 348° |
| 2026-04-25 09:16 | 60.85162 | -117.32915 | 37479 ft | 462 kts | 348° |
| 2026-04-25 09:16 | 60.91426 | -117.35951 | 37494 ft | 462 kts | 348° |
| 2026-04-25 09:17 | 61.00762 | -117.40445 | 37506 ft | 460 kts | 348° |
| 2026-04-25 09:18 | 61.06990 | -117.43424 | 37503 ft | 459 kts | 348° |
| 2026-04-25 09:18 | 61.13218 | -117.46408 | 37497 ft | 459 kts | 348° |
| 2026-04-25 09:19 | 61.19442 | -117.49390 | 37500 ft | 458 kts | 348° |
| 2026-04-25 09:19 | 61.25611 | -117.52344 | 37500 ft | 457 kts | 348° |
| 2026-04-25 09:20 | 61.31818 | -117.55253 | 37479 ft | 458 kts | 348° |
| 2026-04-25 09:20 | 61.38038 | -117.58187 | 37484 ft | 459 kts | 348° |
| 2026-04-25 09:21 | 61.44289 | -117.61135 | 37488 ft | 460 kts | 348° |
| 2026-04-25 09:21 | 61.50550 | -117.64087 | 37501 ft | 462 kts | 348° |
| 2026-04-25 09:22 | 61.56824 | -117.67031 | 37539 ft | 462 kts | 348° |
| 2026-04-25 09:22 | 61.63113 | -117.69913 | 37534 ft | 462 kts | 348° |
| 2026-04-25 09:23 | 61.69359 | -117.72774 | 37535 ft | 462 kts | 348° |
| 2026-04-25 09:23 | 61.75632 | -117.75648 | 37534 ft | 461 kts | 348° |
| 2026-04-25 09:24 | 61.81902 | -117.78521 | 37528 ft | 460 kts | 348° |
| 2026-04-25 09:24 | 61.88155 | -117.81387 | 37523 ft | 459 kts | 348° |
| 2026-04-25 09:25 | 61.94395 | -117.84247 | 37516 ft | 459 kts | 348° |
| 2026-04-25 09:25 | 62.00638 | -117.87109 | 37519 ft | 458 kts | 348° |
| 2026-04-25 09:26 | 62.06874 | -117.89969 | 37512 ft | 458 kts | 348° |
| 2026-04-25 09:26 | 62.13061 | -117.92805 | 37497 ft | 458 kts | 348° |
| 2026-04-25 09:27 | 62.19302 | -117.95629 | 37530 ft | 457 kts | 348° |
| 2026-04-25 09:27 | 62.25526 | -117.98402 | 37527 ft | 457 kts | 348° |
| 2026-04-25 09:28 | 62.31756 | -118.01183 | 37486 ft | 458 kts | 348° |
| 2026-04-25 09:28 | 62.38013 | -118.03991 | 37489 ft | 459 kts | 348° |
| 2026-04-25 09:29 | 62.44273 | -118.06801 | 37486 ft | 460 kts | 348° |
| 2026-04-25 09:29 | 62.50568 | -118.09589 | 37523 ft | 461 kts | 348° |
| 2026-04-25 09:30 | 62.56839 | -118.12320 | 37521 ft | 462 kts | 348° |
| 2026-04-25 09:30 | 62.63152 | -118.15068 | 37525 ft | 462 kts | 348° |
| 2026-04-25 09:31 | 62.69462 | -118.17815 | 37514 ft | 462 kts | 348° |
| 2026-04-25 09:31 | 62.75759 | -118.20557 | 37511 ft | 461 kts | 348° |
| 2026-04-25 09:32 | 62.82051 | -118.23265 | 37510 ft | 460 kts | 348° |
| 2026-04-25 09:32 | 62.88307 | -118.25927 | 37515 ft | 459 kts | 348° |
| 2026-04-25 09:33 | 62.94580 | -118.28597 | 37499 ft | 458 kts | 348° |
| 2026-04-25 09:33 | 63.00843 | -118.31263 | 37482 ft | 458 kts | 348° |
| 2026-04-25 09:34 | 63.07090 | -118.33924 | 37475 ft | 457 kts | 348° |
| 2026-04-25 09:34 | 63.13340 | -118.36564 | 37490 ft | 456 kts | 348° |
| 2026-04-25 09:35 | 63.19584 | -118.39178 | 37488 ft | 456 kts | 348° |
| 2026-04-25 09:35 | 63.25795 | -118.41778 | 37457 ft | 458 kts | 348° |
| 2026-04-25 09:36 | 63.32066 | -118.44401 | 37464 ft | 459 kts | 348° |
| 2026-04-25 09:36 | 63.38353 | -118.47033 | 37476 ft | 460 kts | 348° |
| 2026-04-25 09:37 | 63.44664 | -118.49657 | 37486 ft | 461 kts | 348° |
| 2026-04-25 09:37 | 63.50991 | -118.52260 | 37485 ft | 463 kts | 348° |
| 2026-04-25 09:38 | 63.57331 | -118.54871 | 37503 ft | 463 kts | 348° |
| 2026-04-25 09:38 | 63.63683 | -118.57484 | 37512 ft | 463 kts | 348° |
| 2026-04-25 09:39 | 63.69983 | -118.60078 | 37505 ft | 463 kts | 348° |
| 2026-04-25 09:39 | 63.76315 | -118.62662 | 37505 ft | 462 kts | 348° |
| 2026-04-25 09:40 | 63.85805 | -118.66469 | 37497 ft | 460 kts | 348° |
| 2026-04-25 09:40 | 63.92110 | -118.69002 | 37487 ft | 460 kts | 348° |
| 2026-04-25 09:41 | 63.98407 | -118.71532 | 37481 ft | 459 kts | 348° |
| 2026-04-25 09:41 | 64.04658 | -118.74045 | 37475 ft | 459 kts | 348° |
| 2026-04-25 09:42 | 64.10953 | -118.76526 | 37478 ft | 458 kts | 348° |
| 2026-04-25 09:42 | 64.17247 | -118.78989 | 37434 ft | 460 kts | 349° |
| 2026-04-25 09:43 | 64.23562 | -118.81463 | 37444 ft | 461 kts | 349° |
| 2026-04-25 09:43 | 64.29860 | -118.83932 | 37449 ft | 462 kts | 349° |
| 2026-04-25 09:44 | 64.36204 | -118.86422 | 37467 ft | 463 kts | 349° |
| 2026-04-25 09:44 | 64.42574 | -118.88889 | 37483 ft | 464 kts | 349° |
| 2026-04-25 09:45 | 64.48938 | -118.91329 | 37484 ft | 464 kts | 349° |
| 2026-04-25 09:45 | 64.54240 | -118.93362 | 37485 ft | 464 kts | 349° |
| 2026-04-25 09:46 | 64.61645 | -118.96204 | 37474 ft | 464 kts | 349° |
| 2026-04-25 09:46 | 64.66971 | -118.98249 | 37472 ft | 463 kts | 349° |
| 2026-04-25 09:47 | 64.73343 | -119.00676 | 37468 ft | 463 kts | 349° |
| 2026-04-25 09:47 | 64.79657 | -119.03022 | 37461 ft | 462 kts | 349° |
| 2026-04-25 09:48 | 64.86006 | -119.05382 | 37452 ft | 461 kts | 349° |
| 2026-04-25 09:48 | 64.92347 | -119.07741 | 37448 ft | 461 kts | 349° |
| 2026-04-25 09:49 | 64.98676 | -119.10096 | 37428 ft | 460 kts | 349° |
| 2026-04-25 09:49 | 65.04973 | -119.12438 | 37405 ft | 462 kts | 349° |
| 2026-04-25 09:50 | 65.11324 | -119.14795 | 37406 ft | 462 kts | 349° |
| 2026-04-25 09:50 | 65.17688 | -119.17163 | 37422 ft | 464 kts | 349° |
| 2026-04-25 09:51 | 65.24076 | -119.19543 | 37427 ft | 465 kts | 349° |
| 2026-04-25 09:51 | 65.30470 | -119.21932 | 37436 ft | 466 kts | 349° |
| 2026-04-25 09:52 | 65.36874 | -119.24327 | 37465 ft | 466 kts | 349° |
| 2026-04-25 09:52 | 65.43295 | -119.26677 | 37454 ft | 467 kts | 349° |
| 2026-04-25 09:53 | 65.49713 | -119.29015 | 37456 ft | 466 kts | 349° |
| 2026-04-25 09:53 | 65.56130 | -119.31351 | 37437 ft | 466 kts | 349° |
| 2026-04-25 09:54 | 65.62541 | -119.33689 | 37432 ft | 465 kts | 349° |
| 2026-04-25 09:54 | 65.68937 | -119.36024 | 37423 ft | 465 kts | 349° |
| 2026-04-25 09:55 | 65.75294 | -119.38318 | 37438 ft | 464 kts | 349° |
| 2026-04-25 09:55 | 65.81686 | -119.40597 | 37424 ft | 464 kts | 349° |
| 2026-04-25 09:56 | 65.88069 | -119.42872 | 37442 ft | 463 kts | 349° |
| 2026-04-25 09:56 | 65.94460 | -119.45149 | 37388 ft | 465 kts | 349° |
| 2026-04-25 09:57 | 66.00869 | -119.47435 | 37399 ft | 466 kts | 349° |
| 2026-04-25 09:57 | 66.07290 | -119.49721 | 37426 ft | 467 kts | 349° |
| 2026-04-25 09:58 | 66.13735 | -119.51981 | 37429 ft | 468 kts | 349° |
| 2026-04-25 09:58 | 66.20185 | -119.54245 | 37431 ft | 468 kts | 349° |
| 2026-04-25 09:59 | 66.26595 | -119.56500 | 37438 ft | 468 kts | 349° |
| 2026-04-25 09:59 | 66.33056 | -119.58776 | 37427 ft | 468 kts | 349° |
| 2026-04-25 10:00 | 66.39527 | -119.61057 | 37464 ft | 468 kts | 349° |
| 2026-04-25 10:00 | 66.45976 | -119.63288 | 37440 ft | 468 kts | 349° |
| 2026-04-25 10:01 | 66.52430 | -119.65517 | 37423 ft | 467 kts | 349° |
| 2026-04-25 10:01 | 66.58879 | -119.67750 | 37420 ft | 467 kts | 349° |
| 2026-04-25 10:02 | 66.65313 | -119.69979 | 37412 ft | 467 kts | 349° |
| 2026-04-25 10:02 | 66.71708 | -119.72197 | 37411 ft | 467 kts | 349° |
| 2026-04-25 10:03 | 66.78160 | -119.74416 | 37410 ft | 468 kts | 349° |
| 2026-04-25 10:03 | 66.84614 | -119.76614 | 37410 ft | 468 kts | 349° |
| 2026-04-25 10:04 | 66.91078 | -119.78819 | 37410 ft | 468 kts | 349° |
| 2026-04-25 10:04 | 66.97547 | -119.81029 | 37416 ft | 469 kts | 349° |
| 2026-04-25 10:05 | 67.03984 | -119.83234 | 37425 ft | 469 kts | 349° |
| 2026-04-25 10:05 | 67.10467 | -119.85454 | 37441 ft | 470 kts | 349° |
| 2026-04-25 10:06 | 67.16967 | -119.87647 | 37439 ft | 470 kts | 349° |
| 2026-04-25 10:06 | 67.23420 | -119.89826 | 37439 ft | 470 kts | 349° |
| 2026-04-25 10:07 | 67.29903 | -119.92019 | 37439 ft | 469 kts | 349° |
| 2026-04-25 10:07 | 67.36389 | -119.94216 | 37437 ft | 469 kts | 349° |
| 2026-04-25 10:08 | 67.42837 | -119.96405 | 37441 ft | 469 kts | 349° |
| 2026-04-25 10:08 | 67.49318 | -119.98571 | 37447 ft | 469 kts | 349° |
| 2026-04-25 10:09 | 67.55789 | -120.00721 | 37454 ft | 469 kts | 349° |
| 2026-04-25 10:09 | 67.62266 | -120.02909 | 37429 ft | 469 kts | 349° |
| 2026-04-25 10:10 | 67.68710 | -120.05093 | 37438 ft | 469 kts | 349° |
| 2026-04-25 10:10 | 67.75197 | -120.07298 | 37442 ft | 470 kts | 349° |
| 2026-04-25 10:11 | 67.81679 | -120.09496 | 37453 ft | 470 kts | 349° |
| 2026-04-25 10:11 | 67.88186 | -120.11674 | 37451 ft | 470 kts | 349° |
| 2026-04-25 10:12 | 67.94691 | -120.13857 | 37441 ft | 470 kts | 349° |
| 2026-04-25 10:13 | 68.04425 | -120.17132 | 37445 ft | 470 kts | 349° |
| 2026-04-25 10:13 | 68.10872 | -120.19306 | 37440 ft | 470 kts | 349° |
| 2026-04-25 10:14 | 68.17373 | -120.21495 | 37442 ft | 470 kts | 349° |
| 2026-04-25 10:14 | 68.23861 | -120.23657 | 37436 ft | 470 kts | 349° |
| 2026-04-25 10:15 | 68.30364 | -120.25828 | 37433 ft | 470 kts | 349° |
| 2026-04-25 10:15 | 68.36847 | -120.27998 | 37443 ft | 469 kts | 349° |
| 2026-04-25 10:16 | 68.43359 | -120.30194 | 37427 ft | 470 kts | 349° |
| 2026-04-25 10:16 | 68.49801 | -120.32373 | 37430 ft | 470 kts | 349° |
| 2026-04-25 10:17 | 68.56297 | -120.34577 | 37433 ft | 470 kts | 349° |
| 2026-04-25 10:17 | 68.62800 | -120.36788 | 37424 ft | 470 kts | 349° |
| 2026-04-25 10:18 | 68.69289 | -120.39002 | 37430 ft | 470 kts | 349° |
| 2026-04-25 10:18 | 68.75790 | -120.41226 | 37426 ft | 470 kts | 349° |
| 2026-04-25 10:19 | 68.82288 | -120.43457 | 37425 ft | 471 kts | 349° |
| 2026-04-25 10:19 | 68.88800 | -120.45687 | 37427 ft | 472 kts | 349° |
| 2026-04-25 10:20 | 68.95264 | -120.47874 | 37427 ft | 471 kts | 349° |
| 2026-04-25 10:20 | 69.01784 | -120.50084 | 37431 ft | 471 kts | 349° |
| 2026-04-25 10:21 | 69.08287 | -120.52295 | 37429 ft | 471 kts | 349° |
| 2026-04-25 10:21 | 69.14792 | -120.54512 | 37423 ft | 471 kts | 349° |
| 2026-04-25 10:22 | 69.21294 | -120.56736 | 37422 ft | 471 kts | 349° |
| 2026-04-25 10:22 | 69.27807 | -120.58956 | 37426 ft | 471 kts | 349° |
| 2026-04-25 10:23 | 69.34308 | -120.61170 | 37433 ft | 471 kts | 349° |
| 2026-04-25 10:23 | 69.40779 | -120.63375 | 37431 ft | 471 kts | 349° |
| 2026-04-25 10:24 | 69.47289 | -120.65603 | 37430 ft | 471 kts | 349° |
| 2026-04-25 10:24 | 69.53799 | -120.67843 | 37431 ft | 471 kts | 349° |
| 2026-04-25 10:25 | 69.60319 | -120.70093 | 37446 ft | 471 kts | 349° |
| 2026-04-25 10:25 | 69.66797 | -120.72315 | 37451 ft | 471 kts | 349° |
| 2026-04-25 10:26 | 69.73306 | -120.74554 | 37448 ft | 471 kts | 349° |
| 2026-04-25 10:26 | 69.79830 | -120.76806 | 37448 ft | 471 kts | 349° |
| 2026-04-25 10:27 | 69.86345 | -120.79063 | 37450 ft | 471 kts | 349° |
| 2026-04-25 10:27 | 69.92865 | -120.81330 | 37453 ft | 472 kts | 349° |
| 2026-04-25 10:28 | 69.99352 | -120.83592 | 37500 ft | 472 kts | 349° |
| 2026-04-25 10:28 | 70.05885 | -120.85909 | 37468 ft | 473 kts | 349° |
| 2026-04-25 10:29 | 70.12423 | -120.88243 | 37468 ft | 473 kts | 349° |
| 2026-04-25 10:29 | 70.18962 | -120.90588 | 37475 ft | 473 kts | 349° |
| 2026-04-25 10:30 | 70.25501 | -120.92945 | 37477 ft | 473 kts | 349° |
| 2026-04-25 10:30 | 70.32052 | -120.95316 | 37491 ft | 473 kts | 349° |
| 2026-04-25 10:31 | 70.38554 | -120.97681 | 37493 ft | 474 kts | 349° |
| 2026-04-25 10:31 | 70.45095 | -121.00078 | 37493 ft | 474 kts | 349° |
| 2026-04-25 10:32 | 70.51650 | -121.02490 | 37501 ft | 474 kts | 349° |
| 2026-04-25 10:32 | 70.58207 | -121.04909 | 37502 ft | 474 kts | 349° |
| 2026-04-25 10:33 | 70.64751 | -121.07334 | 37529 ft | 474 kts | 349° |
| 2026-04-25 10:33 | 70.71297 | -121.09777 | 37536 ft | 475 kts | 349° |
| 2026-04-25 10:34 | 70.77862 | -121.12247 | 37536 ft | 475 kts | 349° |
| 2026-04-25 10:34 | 70.83311 | -121.14322 | 37524 ft | 475 kts | 349° |
| 2026-04-25 10:35 | 70.89871 | -121.16874 | 37529 ft | 475 kts | 349° |
| 2026-04-25 10:35 | 70.97493 | -121.19854 | 37550 ft | 475 kts | 349° |
| 2026-04-25 10:36 | 71.02945 | -121.21997 | 37548 ft | 475 kts | 349° |
| 2026-04-25 10:36 | 71.09545 | -121.24605 | 37557 ft | 475 kts | 349° |
| 2026-04-25 10:37 | 71.16078 | -121.27209 | 37560 ft | 475 kts | 349° |
| 2026-04-25 10:37 | 71.22640 | -121.29840 | 37567 ft | 476 kts | 349° |
| 2026-04-25 10:38 | 71.29212 | -121.32492 | 37567 ft | 476 kts | 349° |
| 2026-04-25 10:38 | 71.35786 | -121.35160 | 37576 ft | 476 kts | 349° |
| 2026-04-25 10:39 | 71.42361 | -121.37844 | 37583 ft | 476 kts | 349° |
| 2026-04-25 10:39 | 71.48886 | -121.40536 | 37582 ft | 476 kts | 349° |
| 2026-04-25 10:40 | 71.55449 | -121.43268 | 37585 ft | 476 kts | 349° |
| 2026-04-25 10:40 | 71.62030 | -121.46029 | 37587 ft | 476 kts | 349° |
| 2026-04-25 10:41 | 71.68601 | -121.48845 | 37597 ft | 477 kts | 349° |
| 2026-04-25 10:41 | 71.75192 | -121.51728 | 37596 ft | 477 kts | 349° |
| 2026-04-25 10:42 | 71.81769 | -121.54622 | 37609 ft | 477 kts | 349° |
| 2026-04-25 10:42 | 71.88351 | -121.57541 | 37591 ft | 477 kts | 349° |
| 2026-04-25 10:43 | 71.94882 | -121.60456 | 37594 ft | 477 kts | 349° |
| 2026-04-25 10:43 | 72.01462 | -121.63412 | 37604 ft | 477 kts | 349° |
| 2026-04-25 10:44 | 72.08041 | -121.66386 | 37599 ft | 477 kts | 349° |
| 2026-04-25 10:44 | 72.14604 | -121.69369 | 37602 ft | 477 kts | 349° |
| 2026-04-25 10:45 | 72.21174 | -121.72377 | 37605 ft | 477 kts | 349° |
| 2026-04-25 10:45 | 72.27752 | -121.75409 | 37605 ft | 477 kts | 349° |
| 2026-04-25 10:46 | 72.34323 | -121.78460 | 37616 ft | 477 kts | 349° |
| 2026-04-25 10:46 | 72.40895 | -121.81534 | 37615 ft | 477 kts | 349° |
| 2026-04-25 10:47 | 72.47473 | -121.84631 | 37641 ft | 477 kts | 349° |
| 2026-04-25 10:47 | 72.54008 | -121.87776 | 37609 ft | 477 kts | 348° |
| 2026-04-25 10:48 | 72.60583 | -121.90998 | 37619 ft | 478 kts | 348° |
| 2026-04-25 10:48 | 72.67156 | -121.94270 | 37620 ft | 478 kts | 348° |
| 2026-04-25 10:49 | 72.73744 | -121.97572 | 37636 ft | 478 kts | 348° |
| 2026-04-25 10:49 | 72.80337 | -122.00905 | 37643 ft | 479 kts | 348° |
| 2026-04-25 10:50 | 72.86930 | -122.04262 | 37650 ft | 479 kts | 348° |
| 2026-04-25 10:50 | 72.93523 | -122.07638 | 37651 ft | 479 kts | 348° |
| 2026-04-25 10:51 | 73.00118 | -122.11038 | 37653 ft | 479 kts | 348° |
| 2026-04-25 10:51 | 73.06714 | -122.14465 | 37652 ft | 479 kts | 348° |
| 2026-04-25 10:52 | 73.13317 | -122.17922 | 37652 ft | 479 kts | 348° |
| 2026-04-25 10:52 | 73.19862 | -122.21371 | 37658 ft | 479 kts | 348° |
| 2026-04-25 10:53 | 73.26452 | -122.24873 | 37654 ft | 479 kts | 348° |
| 2026-04-25 10:53 | 73.33039 | -122.28402 | 37704 ft | 479 kts | 348° |
| 2026-04-25 10:54 | 73.39635 | -122.32037 | 37666 ft | 479 kts | 348° |
| 2026-04-25 10:54 | 73.46233 | -122.35712 | 37665 ft | 479 kts | 348° |
| 2026-04-25 10:55 | 73.52829 | -122.39416 | 37659 ft | 479 kts | 348° |
| 2026-04-25 10:55 | 73.59369 | -122.43121 | 37658 ft | 479 kts | 348° |
| 2026-04-25 10:56 | 73.65959 | -122.46883 | 37652 ft | 479 kts | 348° |
| 2026-04-25 10:56 | 73.72544 | -122.50670 | 37663 ft | 479 kts | 348° |
| 2026-04-25 10:57 | 73.79137 | -122.54502 | 37668 ft | 480 kts | 348° |
| 2026-04-25 10:57 | 73.85726 | -122.58362 | 37670 ft | 480 kts | 348° |
| 2026-04-25 10:58 | 73.92282 | -122.62234 | 37671 ft | 480 kts | 348° |
| 2026-04-25 10:58 | 73.98881 | -122.66161 | 37664 ft | 480 kts | 348° |
| 2026-04-25 10:59 | 74.05485 | -122.70122 | 37677 ft | 480 kts | 348° |
| 2026-04-25 10:59 | 74.12037 | -122.74096 | 37669 ft | 481 kts | 348° |
| 2026-04-25 11:00 | 74.18644 | -122.78153 | 37674 ft | 481 kts | 348° |
| 2026-04-25 11:00 | 74.25249 | -122.82291 | 37681 ft | 481 kts | 348° |
| 2026-04-25 11:01 | 74.31838 | -122.86477 | 37673 ft | 480 kts | 348° |
| 2026-04-25 11:01 | 74.38393 | -122.90687 | 37682 ft | 480 kts | 348° |
| 2026-04-25 11:02 | 74.44977 | -122.94952 | 37680 ft | 480 kts | 347° |
| 2026-04-25 11:02 | 74.51551 | -122.99254 | 37678 ft | 480 kts | 347° |
| 2026-04-25 11:03 | 74.58128 | -123.03600 | 37675 ft | 480 kts | 347° |
| 2026-04-25 11:03 | 74.64698 | -123.07981 | 37678 ft | 480 kts | 347° |
| 2026-04-25 11:04 | 74.71272 | -123.12404 | 37680 ft | 480 kts | 347° |
| 2026-04-25 11:04 | 74.77851 | -123.16869 | 37691 ft | 480 kts | 347° |
| 2026-04-25 11:05 | 74.84427 | -123.21373 | 37715 ft | 480 kts | 347° |
| 2026-04-25 11:05 | 74.90962 | -123.25916 | 37695 ft | 481 kts | 347° |
| 2026-04-25 11:06 | 74.97545 | -123.30538 | 37696 ft | 481 kts | 347° |
| 2026-04-25 11:06 | 75.04137 | -123.35204 | 37698 ft | 481 kts | 347° |
| 2026-04-25 11:07 | 75.10724 | -123.39930 | 37724 ft | 481 kts | 347° |
| 2026-04-25 11:07 | 75.17310 | -123.44752 | 37718 ft | 480 kts | 347° |
| 2026-04-25 11:08 | 75.23879 | -123.49610 | 37717 ft | 480 kts | 347° |
| 2026-04-25 11:08 | 75.30404 | -123.54486 | 37710 ft | 480 kts | 347° |
| 2026-04-25 11:09 | 75.36966 | -123.59438 | 37708 ft | 480 kts | 347° |
| 2026-04-25 11:09 | 75.43531 | -123.64444 | 37713 ft | 480 kts | 347° |
| 2026-04-25 11:10 | 75.50093 | -123.69499 | 37716 ft | 480 kts | 347° |
| 2026-04-25 11:10 | 75.56653 | -123.74604 | 37715 ft | 480 kts | 347° |
| 2026-04-25 11:11 | 75.63210 | -123.79760 | 37711 ft | 481 kts | 347° |
| 2026-04-25 11:11 | 75.69766 | -123.84979 | 37715 ft | 481 kts | 347° |
| 2026-04-25 11:12 | 75.76299 | -123.90232 | 37719 ft | 481 kts | 346° |
| 2026-04-25 11:12 | 75.82869 | -123.95570 | 37724 ft | 481 kts | 346° |
| 2026-04-25 11:13 | 75.89436 | -124.00957 | 37724 ft | 481 kts | 346° |
| 2026-04-25 11:13 | 75.96001 | -124.06397 | 37726 ft | 481 kts | 346° |
| 2026-04-25 11:14 | 76.02584 | -124.11943 | 37739 ft | 481 kts | 346° |
| 2026-04-25 11:14 | 76.09103 | -124.17514 | 37731 ft | 480 kts | 346° |
| 2026-04-25 11:15 | 76.15654 | -124.23176 | 37737 ft | 480 kts | 346° |
| 2026-04-25 11:15 | 76.22195 | -124.28889 | 37731 ft | 479 kts | 346° |
| 2026-04-25 11:16 | 76.31947 | -124.37535 | 37726 ft | 479 kts | 346° |
| 2026-04-25 11:16 | 76.38484 | -124.43417 | 37724 ft | 479 kts | 346° |
| 2026-04-25 11:17 | 76.44973 | -124.49324 | 37715 ft | 480 kts | 346° |
| 2026-04-25 11:17 | 76.51501 | -124.55334 | 37723 ft | 480 kts | 346° |
| 2026-04-25 11:18 | 76.58038 | -124.61422 | 37729 ft | 480 kts | 346° |
| 2026-04-25 11:18 | 76.64571 | -124.67577 | 37733 ft | 480 kts | 346° |
| 2026-04-25 11:19 | 76.71109 | -124.73805 | 37724 ft | 481 kts | 345° |
| 2026-04-25 11:19 | 76.77645 | -124.80102 | 37725 ft | 481 kts | 345° |
| 2026-04-25 11:20 | 76.84154 | -124.86453 | 37724 ft | 481 kts | 345° |
| 2026-04-25 11:20 | 76.90694 | -124.92908 | 37735 ft | 481 kts | 345° |
| 2026-04-25 11:21 | 76.97224 | -124.99476 | 37734 ft | 481 kts | 345° |
| 2026-04-25 11:21 | 77.03753 | -125.06119 | 37723 ft | 481 kts | 345° |
| 2026-04-25 11:22 | 77.09168 | -125.11686 | 37729 ft | 480 kts | 345° |
| 2026-04-25 11:22 | 77.15673 | -125.18457 | 37709 ft | 480 kts | 345° |
| 2026-04-25 11:23 | 77.23257 | -125.26476 | 37710 ft | 480 kts | 345° |
| 2026-04-25 11:23 | 77.29761 | -125.33452 | 37706 ft | 480 kts | 345° |
| 2026-04-25 11:24 | 77.35207 | -125.39360 | 37710 ft | 481 kts | 345° |
| 2026-04-25 11:24 | 77.41723 | -125.46514 | 37713 ft | 481 kts | 345° |
| 2026-04-25 11:25 | 77.48189 | -125.53705 | 37709 ft | 481 kts | 344° |
| 2026-04-25 11:25 | 77.54696 | -125.61037 | 37705 ft | 482 kts | 344° |
| 2026-04-25 11:26 | 77.61208 | -125.68476 | 37700 ft | 482 kts | 344° |
| 2026-04-25 11:26 | 77.67722 | -125.76014 | 37702 ft | 482 kts | 344° |
| 2026-04-25 11:27 | 77.74236 | -125.83641 | 37703 ft | 482 kts | 344° |
| 2026-04-25 11:27 | 77.79637 | -125.90030 | 37698 ft | 482 kts | 344° |
| 2026-04-25 11:28 | 77.87245 | -125.99151 | 37699 ft | 482 kts | 344° |
| 2026-04-25 11:28 | 77.93753 | -126.07063 | 37689 ft | 482 kts | 344° |
| 2026-04-25 11:29 | 78.00226 | -126.15043 | 37691 ft | 483 kts | 343° |
| 2026-04-25 11:29 | 78.06734 | -126.23168 | 37686 ft | 483 kts | 343° |
| 2026-04-25 11:30 | 78.13230 | -126.31392 | 37689 ft | 483 kts | 343° |
| 2026-04-25 11:30 | 78.19731 | -126.39740 | 37689 ft | 483 kts | 343° |
| 2026-04-25 11:31 | 78.26219 | -126.48196 | 37678 ft | 483 kts | 343° |
| 2026-04-25 11:31 | 78.32722 | -126.56807 | 37675 ft | 483 kts | 343° |
| 2026-04-25 11:32 | 78.39167 | -126.65474 | 37672 ft | 483 kts | 343° |
| 2026-04-25 11:32 | 78.45694 | -126.74374 | 37672 ft | 483 kts | 343° |
| 2026-04-25 11:33 | 78.52135 | -126.83284 | 37664 ft | 483 kts | 343° |
| 2026-04-25 11:33 | 78.58624 | -126.92387 | 37665 ft | 483 kts | 342° |
| 2026-04-25 11:34 | 78.65099 | -127.01593 | 37665 ft | 483 kts | 342° |
| 2026-04-25 11:34 | 78.71580 | -127.10953 | 37651 ft | 484 kts | 342° |
| 2026-04-25 11:35 | 78.78057 | -127.20451 | 37673 ft | 484 kts | 342° |
| 2026-04-25 11:35 | 78.84489 | -127.30037 | 37655 ft | 483 kts | 342° |
| 2026-04-25 11:36 | 78.90943 | -127.39792 | 37651 ft | 483 kts | 342° |
| 2026-04-25 11:36 | 78.97390 | -127.49668 | 37638 ft | 483 kts | 342° |
| 2026-04-25 11:37 | 79.03838 | -127.59684 | 37638 ft | 483 kts | 342° |
| 2026-04-25 11:37 | 79.10273 | -127.69821 | 37635 ft | 483 kts | 341° |
| 2026-04-25 11:38 | 79.16708 | -127.80117 | 37623 ft | 483 kts | 341° |
| 2026-04-25 11:38 | 79.23148 | -127.90590 | 37623 ft | 483 kts | 341° |
| 2026-04-25 11:39 | 79.29570 | -128.01199 | 37617 ft | 483 kts | 341° |
| 2026-04-25 11:39 | 79.35947 | -128.11897 | 37618 ft | 483 kts | 341° |
| 2026-04-25 11:40 | 79.42364 | -128.22830 | 37618 ft | 483 kts | 341° |
| 2026-04-25 11:40 | 79.48780 | -128.33912 | 37606 ft | 483 kts | 341° |
| 2026-04-25 11:41 | 79.55156 | -128.45090 | 37610 ft | 483 kts | 340° |
| 2026-04-25 11:41 | 79.61565 | -128.56502 | 37594 ft | 483 kts | 340° |
| 2026-04-25 11:42 | 79.67968 | -128.68080 | 37595 ft | 484 kts | 340° |
| 2026-04-25 11:42 | 79.74360 | -128.79819 | 37590 ft | 484 kts | 340° |
| 2026-04-25 11:43 | 79.80756 | -128.91741 | 37596 ft | 483 kts | 340° |
| 2026-04-25 11:43 | 79.87127 | -129.03794 | 37589 ft | 483 kts | 340° |
| 2026-04-25 11:44 | 79.93458 | -129.15941 | 37578 ft | 482 kts | 340° |
| 2026-04-25 11:44 | 79.99814 | -129.28309 | 37574 ft | 482 kts | 339° |
| 2026-04-25 11:45 | 80.06162 | -129.40852 | 37573 ft | 481 kts | 339° |
| 2026-04-25 11:45 | 80.12491 | -129.53570 | 37573 ft | 481 kts | 339° |
| 2026-04-25 11:46 | 80.18786 | -129.66444 | 37564 ft | 482 kts | 339° |
| 2026-04-25 11:46 | 80.25113 | -129.79556 | 37559 ft | 482 kts | 339° |
| 2026-04-25 11:47 | 80.31432 | -129.92889 | 37561 ft | 482 kts | 339° |
| 2026-04-25 11:47 | 80.37752 | -130.06461 | 37551 ft | 482 kts | 338° |
| 2026-04-25 11:48 | 80.44057 | -130.20233 | 37554 ft | 482 kts | 338° |
| 2026-04-25 11:48 | 80.50350 | -130.34215 | 37547 ft | 482 kts | 338° |
| 2026-04-25 11:49 | 80.56602 | -130.48344 | 37555 ft | 483 kts | 338° |
| 2026-04-25 11:49 | 80.62891 | -130.62764 | 37532 ft | 483 kts | 338° |
| 2026-04-25 11:50 | 80.69176 | -130.77413 | 37534 ft | 483 kts | 338° |
| 2026-04-25 11:50 | 80.75466 | -130.92309 | 37548 ft | 483 kts | 337° |
| 2026-04-25 11:51 | 80.81731 | -131.07371 | 37532 ft | 482 kts | 337° |
| 2026-04-25 11:51 | 80.87985 | -131.22649 | 37528 ft | 482 kts | 337° |
| 2026-04-25 11:52 | 80.94227 | -131.38125 | 37504 ft | 482 kts | 336° |
| 2026-04-25 11:52 | 81.00415 | -131.53617 | 37502 ft | 481 kts | 336° |
| 2026-04-25 11:53 | 81.06640 | -131.69462 | 37500 ft | 481 kts | 336° |
| 2026-04-25 11:53 | 81.12854 | -131.85585 | 37495 ft | 480 kts | 336° |
| 2026-04-25 11:54 | 81.19052 | -132.01996 | 37492 ft | 480 kts | 336° |
| 2026-04-25 11:55 | 81.28285 | -132.27048 | 37485 ft | 481 kts | 335° |
| 2026-04-25 11:55 | 81.34467 | -132.44189 | 37486 ft | 481 kts | 335° |
| 2026-04-25 11:56 | 81.40643 | -132.61623 | 37474 ft | 481 kts | 335° |
| 2026-04-25 11:56 | 81.46800 | -132.79332 | 37480 ft | 481 kts | 335° |
| 2026-04-25 11:57 | 81.52952 | -132.97370 | 37474 ft | 482 kts | 334° |
| 2026-04-25 11:57 | 81.59063 | -133.15621 | 37471 ft | 482 kts | 334° |
| 2026-04-25 11:58 | 81.65191 | -133.34270 | 37470 ft | 481 kts | 334° |
| 2026-04-25 11:58 | 81.71319 | -133.53212 | 37460 ft | 482 kts | 334° |
| 2026-04-25 11:59 | 81.77424 | -133.72407 | 37475 ft | 481 kts | 333° |
| 2026-04-25 11:59 | 81.83482 | -133.91761 | 37458 ft | 481 kts | 333° |
| 2026-04-25 12:00 | 81.92592 | -134.21516 | 37456 ft | 480 kts | 333° |
| 2026-04-25 12:01 | 82.01662 | -134.51905 | 37448 ft | 479 kts | 333° |
| 2026-04-25 12:01 | 82.07702 | -134.72554 | 37433 ft | 480 kts | 332° |
| 2026-04-25 12:02 | 82.16683 | -135.04133 | 37427 ft | 480 kts | 332° |
| 2026-04-25 12:02 | 82.22681 | -135.25821 | 37429 ft | 480 kts | 332° |
| 2026-04-25 12:03 | 82.28659 | -135.47936 | 37420 ft | 480 kts | 331° |
| 2026-04-25 12:03 | 82.34622 | -135.70500 | 37427 ft | 480 kts | 331° |
| 2026-04-25 12:04 | 82.40584 | -135.93541 | 37406 ft | 481 kts | 330° |
| 2026-04-25 12:04 | 82.46520 | -136.16966 | 37414 ft | 481 kts | 330° |
| 2026-04-25 12:05 | 82.52447 | -136.40858 | 37412 ft | 481 kts | 330° |
| 2026-04-25 12:05 | 82.58356 | -136.65196 | 37410 ft | 481 kts | 329° |
| 2026-04-25 12:06 | 82.64208 | -136.89808 | 37410 ft | 481 kts | 329° |
| 2026-04-25 12:06 | 82.70078 | -137.15017 | 37405 ft | 481 kts | 329° |
| 2026-04-25 12:07 | 82.75946 | -137.40749 | 37394 ft | 482 kts | 329° |
| 2026-04-25 12:07 | 82.81792 | -137.66953 | 37381 ft | 482 kts | 328° |